| State | Tennessee | Latest | Poor (165 cfs) | |
| River | Pigeon River | Rating | Observed | Estimated |
| Updated | 2026-05-05 9:00 (27 minutes ago) | Flood - The river is flooding. Obstacles can be treacherous or deadly. The river should be avoided at this stage for casual trips and definitely for the inexperienced. Trips should be attempted only with protective gear and equipment.Flood | (none) | 2155 |
| Discharge | 165 cfs (median: 1200 cfs) | High - The river is high and potentially dangerous, especially for the young and / or inexperienced. Normal stream obstacles are sometimes difficult to navigate. Extended distances can be attempted, but canoe travel may not be advisable.High | (none) | 1473 |
| Height | 7.04 feet | Good - Conditions are ideal for a canoe or kayak. Boats typically will drag on fewer than one-quarter of riffles, if at all, and portages are unnecessary or rare. Normal float lengths can be attempted without a problem.Good | (none) | 988 |
| Trend | Steady (steady over 24 hours) | Low - River is low but can still be floated. Some riffles are okay but most come with significant dragging and might need a portage. Float lengths should be reduced to accommodate low flow, dragging, and portages.Low | (none) | 720 |
| USGS | USGS Site ( Duck Duck Go Maps) | Poor - River is too low to float comfortably. Most or all riffles will drag or must be portaged and some obstacles (such as slick shelf rock) cause undue problems. Avoid the river at this stage for casual paddling trips.Poor | (none) | 542 |
A total of 1 rows are displayed.
| Miles | 4.5 |
| Trips | 1 |
| People | 6 |
| Dates | 1 |
| Years | 1 |
| Months | 1 |
| Rows | 1 |
| Sources | 1 |
BLG - Bluegill
CCF - Channel Catfish
CP - Chain Pickerel
FWD - Freshwater Drum
GSF - Green Sunfish
KSB - Kentucky Spotted Bass
LMB - Largemouth Bass
LSF - Longear Sunfish
RB - Rock Bass / Goggle Eye
RSF - Redear Sunfish
RT - Rainbow Trout
SMB - Smallmouth Bass
WB - White Bass
WF - Whitefish
WL - WalleyeThe classic River Trips application is still available for use. It is updated with the new system using a data retrofit. It is no longer maintained. The original River Trips application is no longer updated (as of 1 Dec 2016) but can be checked for errors or for the condition of the data before it was converted to the new system.
| Observation | Height | Discharge | Maximum Discharge | Minimum Discharge | Mean Discharge | P05 | P10 | P20 | P25 | P50 (Median) | P75 | P80 | P90 | P95 |
|---|---|---|---|---|---|---|---|---|---|---|---|---|---|---|
| 2026-05-05 09:00 | 7.04 | 165 | 5150 (2013) | 256 (2008) | 1430 | 363 | 536 | 802 | 845 | 1200 | 1930 | 2020 | 2330 | 3930 |
| 2026-05-05 08:45 | 7.04 | 165 | 5150 (2013) | 256 (2008) | 1430 | 363 | 536 | 802 | 845 | 1200 | 1930 | 2020 | 2330 | 3930 |
| 2026-05-05 08:30 | 7.04 | 165 | 5150 (2013) | 256 (2008) | 1430 | 363 | 536 | 802 | 845 | 1200 | 1930 | 2020 | 2330 | 3930 |
| 2026-05-05 08:15 | 7.04 | 165 | 5150 (2013) | 256 (2008) | 1430 | 363 | 536 | 802 | 845 | 1200 | 1930 | 2020 | 2330 | 3930 |
| 2026-05-05 08:00 | 7.04 | 165 | 5150 (2013) | 256 (2008) | 1430 | 363 | 536 | 802 | 845 | 1200 | 1930 | 2020 | 2330 | 3930 |
| 2026-05-05 07:45 | 7.03 | 162 | 5150 (2013) | 256 (2008) | 1430 | 363 | 536 | 802 | 845 | 1200 | 1930 | 2020 | 2330 | 3930 |
| 2026-05-05 07:30 | 7.03 | 162 | 5150 (2013) | 256 (2008) | 1430 | 363 | 536 | 802 | 845 | 1200 | 1930 | 2020 | 2330 | 3930 |
| 2026-05-05 07:15 | 7.03 | 162 | 5150 (2013) | 256 (2008) | 1430 | 363 | 536 | 802 | 845 | 1200 | 1930 | 2020 | 2330 | 3930 |
| 2026-05-05 07:00 | 7.03 | 162 | 5150 (2013) | 256 (2008) | 1430 | 363 | 536 | 802 | 845 | 1200 | 1930 | 2020 | 2330 | 3930 |
| 2026-05-05 06:45 | 7.02 | 159 | 5150 (2013) | 256 (2008) | 1430 | 363 | 536 | 802 | 845 | 1200 | 1930 | 2020 | 2330 | 3930 |
| 2026-05-05 06:30 | 7.05 | 167 | 5150 (2013) | 256 (2008) | 1430 | 363 | 536 | 802 | 845 | 1200 | 1930 | 2020 | 2330 | 3930 |
| 2026-05-05 06:15 | 7.02 | 159 | 5150 (2013) | 256 (2008) | 1430 | 363 | 536 | 802 | 845 | 1200 | 1930 | 2020 | 2330 | 3930 |
| 2026-05-05 06:00 | 7.03 | 162 | 5150 (2013) | 256 (2008) | 1430 | 363 | 536 | 802 | 845 | 1200 | 1930 | 2020 | 2330 | 3930 |
| 2026-05-05 05:45 | 7.04 | 165 | 5150 (2013) | 256 (2008) | 1430 | 363 | 536 | 802 | 845 | 1200 | 1930 | 2020 | 2330 | 3930 |
| 2026-05-05 05:30 | 7.04 | 165 | 5150 (2013) | 256 (2008) | 1430 | 363 | 536 | 802 | 845 | 1200 | 1930 | 2020 | 2330 | 3930 |
| 2026-05-05 05:15 | 7.03 | 162 | 5150 (2013) | 256 (2008) | 1430 | 363 | 536 | 802 | 845 | 1200 | 1930 | 2020 | 2330 | 3930 |
| 2026-05-05 05:00 | 7.04 | 165 | 5150 (2013) | 256 (2008) | 1430 | 363 | 536 | 802 | 845 | 1200 | 1930 | 2020 | 2330 | 3930 |
| 2026-05-05 04:45 | 7.03 | 162 | 5150 (2013) | 256 (2008) | 1430 | 363 | 536 | 802 | 845 | 1200 | 1930 | 2020 | 2330 | 3930 |
| 2026-05-05 04:30 | 7.03 | 162 | 5150 (2013) | 256 (2008) | 1430 | 363 | 536 | 802 | 845 | 1200 | 1930 | 2020 | 2330 | 3930 |
| 2026-05-05 04:15 | 7.05 | 167 | 5150 (2013) | 256 (2008) | 1430 | 363 | 536 | 802 | 845 | 1200 | 1930 | 2020 | 2330 | 3930 |
| 2026-05-05 04:00 | 7.05 | 167 | 5150 (2013) | 256 (2008) | 1430 | 363 | 536 | 802 | 845 | 1200 | 1930 | 2020 | 2330 | 3930 |
| 2026-05-05 03:45 | 7.05 | 167 | 5150 (2013) | 256 (2008) | 1430 | 363 | 536 | 802 | 845 | 1200 | 1930 | 2020 | 2330 | 3930 |
| 2026-05-05 03:30 | 7.06 | 170 | 5150 (2013) | 256 (2008) | 1430 | 363 | 536 | 802 | 845 | 1200 | 1930 | 2020 | 2330 | 3930 |
| 2026-05-05 03:15 | 7.04 | 165 | 5150 (2013) | 256 (2008) | 1430 | 363 | 536 | 802 | 845 | 1200 | 1930 | 2020 | 2330 | 3930 |
| 2026-05-05 03:00 | 7.05 | 167 | 5150 (2013) | 256 (2008) | 1430 | 363 | 536 | 802 | 845 | 1200 | 1930 | 2020 | 2330 | 3930 |
| 2026-05-05 02:45 | 7.05 | 167 | 5150 (2013) | 256 (2008) | 1430 | 363 | 536 | 802 | 845 | 1200 | 1930 | 2020 | 2330 | 3930 |
| 2026-05-05 02:30 | 7.06 | 170 | 5150 (2013) | 256 (2008) | 1430 | 363 | 536 | 802 | 845 | 1200 | 1930 | 2020 | 2330 | 3930 |
| 2026-05-05 02:15 | 7.06 | 170 | 5150 (2013) | 256 (2008) | 1430 | 363 | 536 | 802 | 845 | 1200 | 1930 | 2020 | 2330 | 3930 |
| 2026-05-05 02:00 | 7.06 | 170 | 5150 (2013) | 256 (2008) | 1430 | 363 | 536 | 802 | 845 | 1200 | 1930 | 2020 | 2330 | 3930 |
| 2026-05-05 01:45 | 7.05 | 167 | 5150 (2013) | 256 (2008) | 1430 | 363 | 536 | 802 | 845 | 1200 | 1930 | 2020 | 2330 | 3930 |
| 2026-05-05 01:30 | 7.05 | 167 | 5150 (2013) | 256 (2008) | 1430 | 363 | 536 | 802 | 845 | 1200 | 1930 | 2020 | 2330 | 3930 |
| 2026-05-05 01:15 | 7.04 | 165 | 5150 (2013) | 256 (2008) | 1430 | 363 | 536 | 802 | 845 | 1200 | 1930 | 2020 | 2330 | 3930 |
| 2026-05-05 01:00 | 7.05 | 167 | 5150 (2013) | 256 (2008) | 1430 | 363 | 536 | 802 | 845 | 1200 | 1930 | 2020 | 2330 | 3930 |
| 2026-05-05 00:45 | 7.06 | 170 | 5150 (2013) | 256 (2008) | 1430 | 363 | 536 | 802 | 845 | 1200 | 1930 | 2020 | 2330 | 3930 |
| 2026-05-05 00:30 | 7.06 | 170 | 5150 (2013) | 256 (2008) | 1430 | 363 | 536 | 802 | 845 | 1200 | 1930 | 2020 | 2330 | 3930 |
| 2026-05-05 00:15 | 7.05 | 167 | 5150 (2013) | 256 (2008) | 1430 | 363 | 536 | 802 | 845 | 1200 | 1930 | 2020 | 2330 | 3930 |
| 2026-05-05 00:00 | 7.05 | 167 | 5150 (2013) | 256 (2008) | 1430 | 363 | 536 | 802 | 845 | 1200 | 1930 | 2020 | 2330 | 3930 |
| 2026-05-04 23:45 | 7.06 | 170 | 5150 (2013) | 256 (2008) | 1430 | 363 | 536 | 802 | 845 | 1200 | 1930 | 2020 | 2330 | 3930 |
| 2026-05-04 23:30 | 7.06 | 170 | 5150 (2013) | 256 (2008) | 1430 | 363 | 536 | 802 | 845 | 1200 | 1930 | 2020 | 2330 | 3930 |
| 2026-05-04 23:15 | 7.06 | 170 | 5150 (2013) | 256 (2008) | 1430 | 363 | 536 | 802 | 845 | 1200 | 1930 | 2020 | 2330 | 3930 |
| 2026-05-04 23:00 | 7.05 | 167 | 5150 (2013) | 256 (2008) | 1430 | 363 | 536 | 802 | 845 | 1200 | 1930 | 2020 | 2330 | 3930 |
| 2026-05-04 22:45 | 7.05 | 167 | 3410 (1997) | 355 (2007) | 1280 | 426 | 522 | 699 | 738 | 1210 | 1690 | 1780 | 2150 | 2910 |
| 2026-05-04 22:30 | 7.07 | 173 | 3410 (1997) | 355 (2007) | 1280 | 426 | 522 | 699 | 738 | 1210 | 1690 | 1780 | 2150 | 2910 |
| 2026-05-04 22:15 | 7.05 | 167 | 3410 (1997) | 355 (2007) | 1280 | 426 | 522 | 699 | 738 | 1210 | 1690 | 1780 | 2150 | 2910 |
| 2026-05-04 22:00 | 7.06 | 170 | 3410 (1997) | 355 (2007) | 1280 | 426 | 522 | 699 | 738 | 1210 | 1690 | 1780 | 2150 | 2910 |
| 2026-05-04 21:45 | 7.07 | 173 | 3410 (1997) | 355 (2007) | 1280 | 426 | 522 | 699 | 738 | 1210 | 1690 | 1780 | 2150 | 2910 |
| 2026-05-04 21:30 | 7.08 | 175 | 3410 (1997) | 355 (2007) | 1280 | 426 | 522 | 699 | 738 | 1210 | 1690 | 1780 | 2150 | 2910 |
| 2026-05-04 21:15 | 7.08 | 175 | 3410 (1997) | 355 (2007) | 1280 | 426 | 522 | 699 | 738 | 1210 | 1690 | 1780 | 2150 | 2910 |
| 2026-05-04 21:00 | 7.10 | 181 | 3410 (1997) | 355 (2007) | 1280 | 426 | 522 | 699 | 738 | 1210 | 1690 | 1780 | 2150 | 2910 |
| 2026-05-04 20:45 | 7.25 | 226 | 3410 (1997) | 355 (2007) | 1280 | 426 | 522 | 699 | 738 | 1210 | 1690 | 1780 | 2150 | 2910 |
| 2026-05-04 20:30 | 7.93 | 530 | 3410 (1997) | 355 (2007) | 1280 | 426 | 522 | 699 | 738 | 1210 | 1690 | 1780 | 2150 | 2910 |
| 2026-05-04 20:15 | 8.80 | 1190 | 3410 (1997) | 355 (2007) | 1280 | 426 | 522 | 699 | 738 | 1210 | 1690 | 1780 | 2150 | 2910 |
| 2026-05-04 20:00 | 8.95 | 1330 | 3410 (1997) | 355 (2007) | 1280 | 426 | 522 | 699 | 738 | 1210 | 1690 | 1780 | 2150 | 2910 |
| 2026-05-04 19:45 | 8.95 | 1330 | 3410 (1997) | 355 (2007) | 1280 | 426 | 522 | 699 | 738 | 1210 | 1690 | 1780 | 2150 | 2910 |
| 2026-05-04 19:30 | 8.95 | 1330 | 3410 (1997) | 355 (2007) | 1280 | 426 | 522 | 699 | 738 | 1210 | 1690 | 1780 | 2150 | 2910 |
| 2026-05-04 19:15 | 8.96 | 1340 | 3410 (1997) | 355 (2007) | 1280 | 426 | 522 | 699 | 738 | 1210 | 1690 | 1780 | 2150 | 2910 |
| 2026-05-04 19:00 | 8.95 | 1330 | 3410 (1997) | 355 (2007) | 1280 | 426 | 522 | 699 | 738 | 1210 | 1690 | 1780 | 2150 | 2910 |
| 2026-05-04 18:45 | 8.97 | 1350 | 3410 (1997) | 355 (2007) | 1280 | 426 | 522 | 699 | 738 | 1210 | 1690 | 1780 | 2150 | 2910 |
| 2026-05-04 18:30 | 8.96 | 1340 | 3410 (1997) | 355 (2007) | 1280 | 426 | 522 | 699 | 738 | 1210 | 1690 | 1780 | 2150 | 2910 |
| 2026-05-04 18:15 | 8.66 | 1060 | 3410 (1997) | 355 (2007) | 1280 | 426 | 522 | 699 | 738 | 1210 | 1690 | 1780 | 2150 | 2910 |
| 2026-05-04 18:00 | 7.07 | 173 | 3410 (1997) | 355 (2007) | 1280 | 426 | 522 | 699 | 738 | 1210 | 1690 | 1780 | 2150 | 2910 |
| 2026-05-04 17:45 | 7.08 | 175 | 3410 (1997) | 355 (2007) | 1280 | 426 | 522 | 699 | 738 | 1210 | 1690 | 1780 | 2150 | 2910 |
| 2026-05-04 17:30 | 7.06 | 170 | 3410 (1997) | 355 (2007) | 1280 | 426 | 522 | 699 | 738 | 1210 | 1690 | 1780 | 2150 | 2910 |
| 2026-05-04 17:15 | 7.06 | 170 | 3410 (1997) | 355 (2007) | 1280 | 426 | 522 | 699 | 738 | 1210 | 1690 | 1780 | 2150 | 2910 |
| 2026-05-04 17:00 | 7.08 | 175 | 3410 (1997) | 355 (2007) | 1280 | 426 | 522 | 699 | 738 | 1210 | 1690 | 1780 | 2150 | 2910 |
| 2026-05-04 16:45 | 7.07 | 173 | 3410 (1997) | 355 (2007) | 1280 | 426 | 522 | 699 | 738 | 1210 | 1690 | 1780 | 2150 | 2910 |
| 2026-05-04 16:30 | 7.06 | 170 | 3410 (1997) | 355 (2007) | 1280 | 426 | 522 | 699 | 738 | 1210 | 1690 | 1780 | 2150 | 2910 |
| 2026-05-04 16:15 | 7.07 | 173 | 3410 (1997) | 355 (2007) | 1280 | 426 | 522 | 699 | 738 | 1210 | 1690 | 1780 | 2150 | 2910 |
| 2026-05-04 16:00 | 7.07 | 173 | 3410 (1997) | 355 (2007) | 1280 | 426 | 522 | 699 | 738 | 1210 | 1690 | 1780 | 2150 | 2910 |
| 2026-05-04 15:45 | 7.07 | 173 | 3410 (1997) | 355 (2007) | 1280 | 426 | 522 | 699 | 738 | 1210 | 1690 | 1780 | 2150 | 2910 |
| 2026-05-04 15:30 | 7.08 | 175 | 3410 (1997) | 355 (2007) | 1280 | 426 | 522 | 699 | 738 | 1210 | 1690 | 1780 | 2150 | 2910 |
| 2026-05-04 15:15 | 7.06 | 170 | 3410 (1997) | 355 (2007) | 1280 | 426 | 522 | 699 | 738 | 1210 | 1690 | 1780 | 2150 | 2910 |
| 2026-05-04 15:00 | 7.06 | 170 | 3410 (1997) | 355 (2007) | 1280 | 426 | 522 | 699 | 738 | 1210 | 1690 | 1780 | 2150 | 2910 |
| 2026-05-04 14:45 | 7.08 | 175 | 3410 (1997) | 355 (2007) | 1280 | 426 | 522 | 699 | 738 | 1210 | 1690 | 1780 | 2150 | 2910 |
| 2026-05-04 14:30 | 7.07 | 173 | 3410 (1997) | 355 (2007) | 1280 | 426 | 522 | 699 | 738 | 1210 | 1690 | 1780 | 2150 | 2910 |
| 2026-05-04 14:15 | 7.08 | 175 | 3410 (1997) | 355 (2007) | 1280 | 426 | 522 | 699 | 738 | 1210 | 1690 | 1780 | 2150 | 2910 |
| 2026-05-04 14:00 | 7.08 | 175 | 3410 (1997) | 355 (2007) | 1280 | 426 | 522 | 699 | 738 | 1210 | 1690 | 1780 | 2150 | 2910 |
| 2026-05-04 13:30 | 7.07 | 173 | 3410 (1997) | 355 (2007) | 1280 | 426 | 522 | 699 | 738 | 1210 | 1690 | 1780 | 2150 | 2910 |
| 2026-05-04 13:15 | 7.07 | 173 | 3410 (1997) | 355 (2007) | 1280 | 426 | 522 | 699 | 738 | 1210 | 1690 | 1780 | 2150 | 2910 |
| 2026-05-04 13:00 | 7.07 | 173 | 3410 (1997) | 355 (2007) | 1280 | 426 | 522 | 699 | 738 | 1210 | 1690 | 1780 | 2150 | 2910 |
| 2026-05-04 12:45 | 7.07 | 173 | 3410 (1997) | 355 (2007) | 1280 | 426 | 522 | 699 | 738 | 1210 | 1690 | 1780 | 2150 | 2910 |
| 2026-05-04 12:30 | 7.07 | 173 | 3410 (1997) | 355 (2007) | 1280 | 426 | 522 | 699 | 738 | 1210 | 1690 | 1780 | 2150 | 2910 |
| 2026-05-04 12:15 | 7.07 | 173 | 3410 (1997) | 355 (2007) | 1280 | 426 | 522 | 699 | 738 | 1210 | 1690 | 1780 | 2150 | 2910 |
| 2026-05-04 12:00 | 7.07 | 173 | 3410 (1997) | 355 (2007) | 1280 | 426 | 522 | 699 | 738 | 1210 | 1690 | 1780 | 2150 | 2910 |
| 2026-05-04 11:45 | 7.06 | 170 | 3410 (1997) | 355 (2007) | 1280 | 426 | 522 | 699 | 738 | 1210 | 1690 | 1780 | 2150 | 2910 |
| 2026-05-04 11:30 | 7.06 | 170 | 3410 (1997) | 355 (2007) | 1280 | 426 | 522 | 699 | 738 | 1210 | 1690 | 1780 | 2150 | 2910 |
| 2026-05-04 11:15 | 7.05 | 167 | 3410 (1997) | 355 (2007) | 1280 | 426 | 522 | 699 | 738 | 1210 | 1690 | 1780 | 2150 | 2910 |
| 2026-05-04 11:00 | 7.05 | 167 | 3410 (1997) | 355 (2007) | 1280 | 426 | 522 | 699 | 738 | 1210 | 1690 | 1780 | 2150 | 2910 |
| 2026-05-04 10:45 | 7.05 | 167 | 3410 (1997) | 355 (2007) | 1280 | 426 | 522 | 699 | 738 | 1210 | 1690 | 1780 | 2150 | 2910 |
| 2026-05-04 10:30 | 7.03 | 162 | 3410 (1997) | 355 (2007) | 1280 | 426 | 522 | 699 | 738 | 1210 | 1690 | 1780 | 2150 | 2910 |
| 2026-05-04 10:15 | 7.04 | 165 | 3410 (1997) | 355 (2007) | 1280 | 426 | 522 | 699 | 738 | 1210 | 1690 | 1780 | 2150 | 2910 |
| 2026-05-04 10:00 | 7.04 | 165 | 3410 (1997) | 355 (2007) | 1280 | 426 | 522 | 699 | 738 | 1210 | 1690 | 1780 | 2150 | 2910 |
| 2026-05-04 09:45 | 7.04 | 165 | 3410 (1997) | 355 (2007) | 1280 | 426 | 522 | 699 | 738 | 1210 | 1690 | 1780 | 2150 | 2910 |
| 2026-05-04 09:00 | 7.05 | 167 | 3410 (1997) | 355 (2007) | 1280 | 426 | 522 | 699 | 738 | 1210 | 1690 | 1780 | 2150 | 2910 |
| 2026-05-04 08:45 | 7.04 | 165 | 3410 (1997) | 355 (2007) | 1280 | 426 | 522 | 699 | 738 | 1210 | 1690 | 1780 | 2150 | 2910 |
| 2026-05-04 08:30 | 7.05 | 167 | 3410 (1997) | 355 (2007) | 1280 | 426 | 522 | 699 | 738 | 1210 | 1690 | 1780 | 2150 | 2910 |
| 2026-05-04 08:15 | 7.03 | 162 | 3410 (1997) | 355 (2007) | 1280 | 426 | 522 | 699 | 738 | 1210 | 1690 | 1780 | 2150 | 2910 |
| 2026-05-04 08:00 | 7.03 | 162 | 3410 (1997) | 355 (2007) | 1280 | 426 | 522 | 699 | 738 | 1210 | 1690 | 1780 | 2150 | 2910 |
| 2026-05-04 07:45 | 7.02 | 159 | 3410 (1997) | 355 (2007) | 1280 | 426 | 522 | 699 | 738 | 1210 | 1690 | 1780 | 2150 | 2910 |
| 2026-05-04 07:30 | 7.02 | 159 | 3410 (1997) | 355 (2007) | 1280 | 426 | 522 | 699 | 738 | 1210 | 1690 | 1780 | 2150 | 2910 |
| 2026-05-04 07:15 | 7.02 | 159 | 3410 (1997) | 355 (2007) | 1280 | 426 | 522 | 699 | 738 | 1210 | 1690 | 1780 | 2150 | 2910 |
| 2026-05-04 07:00 | 7.04 | 165 | 3410 (1997) | 355 (2007) | 1280 | 426 | 522 | 699 | 738 | 1210 | 1690 | 1780 | 2150 | 2910 |
| 2026-05-04 06:45 | 7.03 | 162 | 3410 (1997) | 355 (2007) | 1280 | 426 | 522 | 699 | 738 | 1210 | 1690 | 1780 | 2150 | 2910 |
| 2026-05-04 06:30 | 7.04 | 165 | 3410 (1997) | 355 (2007) | 1280 | 426 | 522 | 699 | 738 | 1210 | 1690 | 1780 | 2150 | 2910 |
| 2026-05-04 06:15 | 7.03 | 162 | 3410 (1997) | 355 (2007) | 1280 | 426 | 522 | 699 | 738 | 1210 | 1690 | 1780 | 2150 | 2910 |
| 2026-05-04 06:00 | 7.05 | 167 | 3410 (1997) | 355 (2007) | 1280 | 426 | 522 | 699 | 738 | 1210 | 1690 | 1780 | 2150 | 2910 |
| 2026-05-04 05:45 | 7.11 | 184 | 3410 (1997) | 355 (2007) | 1280 | 426 | 522 | 699 | 738 | 1210 | 1690 | 1780 | 2150 | 2910 |
| 2026-05-04 05:30 | 7.12 | 187 | 3410 (1997) | 355 (2007) | 1280 | 426 | 522 | 699 | 738 | 1210 | 1690 | 1780 | 2150 | 2910 |
| 2026-05-04 05:15 | 6.99 | 152 | 3410 (1997) | 355 (2007) | 1280 | 426 | 522 | 699 | 738 | 1210 | 1690 | 1780 | 2150 | 2910 |
| 2026-05-04 05:00 | 6.99 | 152 | 3410 (1997) | 355 (2007) | 1280 | 426 | 522 | 699 | 738 | 1210 | 1690 | 1780 | 2150 | 2910 |
| 2026-05-04 04:45 | 6.99 | 152 | 3410 (1997) | 355 (2007) | 1280 | 426 | 522 | 699 | 738 | 1210 | 1690 | 1780 | 2150 | 2910 |
| 2026-05-04 04:30 | 7.00 | 154 | 3410 (1997) | 355 (2007) | 1280 | 426 | 522 | 699 | 738 | 1210 | 1690 | 1780 | 2150 | 2910 |
| 2026-05-04 04:15 | 7.00 | 154 | 3410 (1997) | 355 (2007) | 1280 | 426 | 522 | 699 | 738 | 1210 | 1690 | 1780 | 2150 | 2910 |
| 2026-05-04 04:00 | 7.00 | 154 | 3410 (1997) | 355 (2007) | 1280 | 426 | 522 | 699 | 738 | 1210 | 1690 | 1780 | 2150 | 2910 |
| 2026-05-04 03:45 | 7.00 | 154 | 3410 (1997) | 355 (2007) | 1280 | 426 | 522 | 699 | 738 | 1210 | 1690 | 1780 | 2150 | 2910 |
| 2026-05-04 03:30 | 7.00 | 154 | 3410 (1997) | 355 (2007) | 1280 | 426 | 522 | 699 | 738 | 1210 | 1690 | 1780 | 2150 | 2910 |
| 2026-05-04 03:15 | 6.99 | 152 | 3410 (1997) | 355 (2007) | 1280 | 426 | 522 | 699 | 738 | 1210 | 1690 | 1780 | 2150 | 2910 |
| 2026-05-04 03:00 | 7.00 | 154 | 3410 (1997) | 355 (2007) | 1280 | 426 | 522 | 699 | 738 | 1210 | 1690 | 1780 | 2150 | 2910 |
| 2026-05-04 02:45 | 7.00 | 154 | 3410 (1997) | 355 (2007) | 1280 | 426 | 522 | 699 | 738 | 1210 | 1690 | 1780 | 2150 | 2910 |
| 2026-05-04 02:30 | 7.00 | 154 | 3410 (1997) | 355 (2007) | 1280 | 426 | 522 | 699 | 738 | 1210 | 1690 | 1780 | 2150 | 2910 |
| 2026-05-04 02:15 | 6.99 | 152 | 3410 (1997) | 355 (2007) | 1280 | 426 | 522 | 699 | 738 | 1210 | 1690 | 1780 | 2150 | 2910 |
| 2026-05-04 02:00 | 6.99 | 152 | 3410 (1997) | 355 (2007) | 1280 | 426 | 522 | 699 | 738 | 1210 | 1690 | 1780 | 2150 | 2910 |
| 2026-05-04 01:45 | 6.99 | 152 | 3410 (1997) | 355 (2007) | 1280 | 426 | 522 | 699 | 738 | 1210 | 1690 | 1780 | 2150 | 2910 |
| 2026-05-04 01:30 | 6.99 | 152 | 3410 (1997) | 355 (2007) | 1280 | 426 | 522 | 699 | 738 | 1210 | 1690 | 1780 | 2150 | 2910 |
| 2026-05-04 01:15 | 7.00 | 154 | 3410 (1997) | 355 (2007) | 1280 | 426 | 522 | 699 | 738 | 1210 | 1690 | 1780 | 2150 | 2910 |
| 2026-05-04 01:00 | 7.00 | 154 | 3410 (1997) | 355 (2007) | 1280 | 426 | 522 | 699 | 738 | 1210 | 1690 | 1780 | 2150 | 2910 |
| 2026-05-04 00:45 | 7.01 | 157 | 3410 (1997) | 355 (2007) | 1280 | 426 | 522 | 699 | 738 | 1210 | 1690 | 1780 | 2150 | 2910 |
| 2026-05-04 00:30 | 7.00 | 154 | 3410 (1997) | 355 (2007) | 1280 | 426 | 522 | 699 | 738 | 1210 | 1690 | 1780 | 2150 | 2910 |
| 2026-05-04 00:15 | 7.00 | 154 | 3410 (1997) | 355 (2007) | 1280 | 426 | 522 | 699 | 738 | 1210 | 1690 | 1780 | 2150 | 2910 |
| 2026-05-04 00:00 | 7.01 | 157 | 3410 (1997) | 355 (2007) | 1280 | 426 | 522 | 699 | 738 | 1210 | 1690 | 1780 | 2150 | 2910 |
| 2026-05-03 23:45 | 7.01 | 157 | 3410 (1997) | 355 (2007) | 1280 | 426 | 522 | 699 | 738 | 1210 | 1690 | 1780 | 2150 | 2910 |
| 2026-05-03 23:30 | 7.02 | 159 | 3410 (1997) | 355 (2007) | 1280 | 426 | 522 | 699 | 738 | 1210 | 1690 | 1780 | 2150 | 2910 |
| 2026-05-03 23:15 | 7.01 | 157 | 3410 (1997) | 355 (2007) | 1280 | 426 | 522 | 699 | 738 | 1210 | 1690 | 1780 | 2150 | 2910 |
| 2026-05-03 23:00 | 7.05 | 167 | 3410 (1997) | 355 (2007) | 1280 | 426 | 522 | 699 | 738 | 1210 | 1690 | 1780 | 2150 | 2910 |
| 2026-05-03 22:45 | 7.37 | 268 | 3320 (1997) | 231 (1999) | 1270 | 249 | 305 | 814 | 831 | 1150 | 1540 | 1660 | 2450 | 3030 |
| 2026-05-03 22:30 | 8.19 | 697 | 3320 (1997) | 231 (1999) | 1270 | 249 | 305 | 814 | 831 | 1150 | 1540 | 1660 | 2450 | 3030 |
| 2026-05-03 22:15 | 8.92 | 1300 | 3320 (1997) | 231 (1999) | 1270 | 249 | 305 | 814 | 831 | 1150 | 1540 | 1660 | 2450 | 3030 |
| 2026-05-03 22:00 | 8.95 | 1330 | 3320 (1997) | 231 (1999) | 1270 | 249 | 305 | 814 | 831 | 1150 | 1540 | 1660 | 2450 | 3030 |
| 2026-05-03 21:45 | 8.95 | 1330 | 3320 (1997) | 231 (1999) | 1270 | 249 | 305 | 814 | 831 | 1150 | 1540 | 1660 | 2450 | 3030 |
| 2026-05-03 21:30 | 8.94 | 1320 | 3320 (1997) | 231 (1999) | 1270 | 249 | 305 | 814 | 831 | 1150 | 1540 | 1660 | 2450 | 3030 |
| 2026-05-03 21:15 | 8.95 | 1330 | 3320 (1997) | 231 (1999) | 1270 | 249 | 305 | 814 | 831 | 1150 | 1540 | 1660 | 2450 | 3030 |
| 2026-05-03 21:00 | 8.95 | 1330 | 3320 (1997) | 231 (1999) | 1270 | 249 | 305 | 814 | 831 | 1150 | 1540 | 1660 | 2450 | 3030 |
| 2026-05-03 20:45 | 8.94 | 1320 | 3320 (1997) | 231 (1999) | 1270 | 249 | 305 | 814 | 831 | 1150 | 1540 | 1660 | 2450 | 3030 |
| 2026-05-03 20:30 | 8.94 | 1320 | 3320 (1997) | 231 (1999) | 1270 | 249 | 305 | 814 | 831 | 1150 | 1540 | 1660 | 2450 | 3030 |
| 2026-05-03 20:15 | 8.95 | 1330 | 3320 (1997) | 231 (1999) | 1270 | 249 | 305 | 814 | 831 | 1150 | 1540 | 1660 | 2450 | 3030 |
| 2026-05-03 20:00 | 8.94 | 1320 | 3320 (1997) | 231 (1999) | 1270 | 249 | 305 | 814 | 831 | 1150 | 1540 | 1660 | 2450 | 3030 |
| 2026-05-03 19:45 | 8.96 | 1340 | 3320 (1997) | 231 (1999) | 1270 | 249 | 305 | 814 | 831 | 1150 | 1540 | 1660 | 2450 | 3030 |
| 2026-05-03 19:30 | 8.95 | 1330 | 3320 (1997) | 231 (1999) | 1270 | 249 | 305 | 814 | 831 | 1150 | 1540 | 1660 | 2450 | 3030 |
| 2026-05-03 19:15 | 8.95 | 1330 | 3320 (1997) | 231 (1999) | 1270 | 249 | 305 | 814 | 831 | 1150 | 1540 | 1660 | 2450 | 3030 |
| 2026-05-03 19:00 | 8.94 | 1320 | 3320 (1997) | 231 (1999) | 1270 | 249 | 305 | 814 | 831 | 1150 | 1540 | 1660 | 2450 | 3030 |
| 2026-05-03 18:45 | 8.95 | 1330 | 3320 (1997) | 231 (1999) | 1270 | 249 | 305 | 814 | 831 | 1150 | 1540 | 1660 | 2450 | 3030 |
| 2026-05-03 18:30 | 8.95 | 1330 | 3320 (1997) | 231 (1999) | 1270 | 249 | 305 | 814 | 831 | 1150 | 1540 | 1660 | 2450 | 3030 |
| 2026-05-03 18:15 | 8.84 | 1220 | 3320 (1997) | 231 (1999) | 1270 | 249 | 305 | 814 | 831 | 1150 | 1540 | 1660 | 2450 | 3030 |
| 2026-05-03 17:45 | 7.01 | 157 | 3320 (1997) | 231 (1999) | 1270 | 249 | 305 | 814 | 831 | 1150 | 1540 | 1660 | 2450 | 3030 |
| 2026-05-03 17:30 | 7.01 | 157 | 3320 (1997) | 231 (1999) | 1270 | 249 | 305 | 814 | 831 | 1150 | 1540 | 1660 | 2450 | 3030 |
| 2026-05-03 17:15 | 7.00 | 154 | 3320 (1997) | 231 (1999) | 1270 | 249 | 305 | 814 | 831 | 1150 | 1540 | 1660 | 2450 | 3030 |
| 2026-05-03 17:00 | 7.01 | 157 | 3320 (1997) | 231 (1999) | 1270 | 249 | 305 | 814 | 831 | 1150 | 1540 | 1660 | 2450 | 3030 |
| 2026-05-03 16:45 | 7.01 | 157 | 3320 (1997) | 231 (1999) | 1270 | 249 | 305 | 814 | 831 | 1150 | 1540 | 1660 | 2450 | 3030 |
| 2026-05-03 16:30 | 7.01 | 157 | 3320 (1997) | 231 (1999) | 1270 | 249 | 305 | 814 | 831 | 1150 | 1540 | 1660 | 2450 | 3030 |
| 2026-05-03 16:00 | 7.02 | 159 | 3320 (1997) | 231 (1999) | 1270 | 249 | 305 | 814 | 831 | 1150 | 1540 | 1660 | 2450 | 3030 |
| 2026-05-03 15:45 | 7.02 | 159 | 3320 (1997) | 231 (1999) | 1270 | 249 | 305 | 814 | 831 | 1150 | 1540 | 1660 | 2450 | 3030 |
| 2026-05-03 15:15 | 7.01 | 157 | 3320 (1997) | 231 (1999) | 1270 | 249 | 305 | 814 | 831 | 1150 | 1540 | 1660 | 2450 | 3030 |
| 2026-05-03 15:00 | 7.00 | 154 | 3320 (1997) | 231 (1999) | 1270 | 249 | 305 | 814 | 831 | 1150 | 1540 | 1660 | 2450 | 3030 |
| 2026-05-03 14:45 | 7.01 | 157 | 3320 (1997) | 231 (1999) | 1270 | 249 | 305 | 814 | 831 | 1150 | 1540 | 1660 | 2450 | 3030 |
| 2026-05-03 13:45 | 7.01 | 157 | 3320 (1997) | 231 (1999) | 1270 | 249 | 305 | 814 | 831 | 1150 | 1540 | 1660 | 2450 | 3030 |
| 2026-05-03 13:30 | 7.01 | 157 | 3320 (1997) | 231 (1999) | 1270 | 249 | 305 | 814 | 831 | 1150 | 1540 | 1660 | 2450 | 3030 |
| 2026-05-03 13:15 | 7.01 | 157 | 3320 (1997) | 231 (1999) | 1270 | 249 | 305 | 814 | 831 | 1150 | 1540 | 1660 | 2450 | 3030 |
| 2026-05-03 13:00 | 7.01 | 157 | 3320 (1997) | 231 (1999) | 1270 | 249 | 305 | 814 | 831 | 1150 | 1540 | 1660 | 2450 | 3030 |
| 2026-05-03 12:45 | 7.01 | 157 | 3320 (1997) | 231 (1999) | 1270 | 249 | 305 | 814 | 831 | 1150 | 1540 | 1660 | 2450 | 3030 |
| 2026-05-03 12:30 | 7.01 | 157 | 3320 (1997) | 231 (1999) | 1270 | 249 | 305 | 814 | 831 | 1150 | 1540 | 1660 | 2450 | 3030 |
| 2026-05-03 12:15 | 7.01 | 157 | 3320 (1997) | 231 (1999) | 1270 | 249 | 305 | 814 | 831 | 1150 | 1540 | 1660 | 2450 | 3030 |
| 2026-05-03 12:00 | 7.01 | 157 | 3320 (1997) | 231 (1999) | 1270 | 249 | 305 | 814 | 831 | 1150 | 1540 | 1660 | 2450 | 3030 |
| 2026-05-03 11:45 | 7.01 | 157 | 3320 (1997) | 231 (1999) | 1270 | 249 | 305 | 814 | 831 | 1150 | 1540 | 1660 | 2450 | 3030 |
| 2026-05-03 11:30 | 7.02 | 159 | 3320 (1997) | 231 (1999) | 1270 | 249 | 305 | 814 | 831 | 1150 | 1540 | 1660 | 2450 | 3030 |
| 2026-05-03 11:15 | 7.01 | 157 | 3320 (1997) | 231 (1999) | 1270 | 249 | 305 | 814 | 831 | 1150 | 1540 | 1660 | 2450 | 3030 |
| 2026-05-03 11:00 | 7.00 | 154 | 3320 (1997) | 231 (1999) | 1270 | 249 | 305 | 814 | 831 | 1150 | 1540 | 1660 | 2450 | 3030 |
| 2026-05-03 10:45 | 7.00 | 154 | 3320 (1997) | 231 (1999) | 1270 | 249 | 305 | 814 | 831 | 1150 | 1540 | 1660 | 2450 | 3030 |
| 2026-05-03 10:30 | 7.02 | 159 | 3320 (1997) | 231 (1999) | 1270 | 249 | 305 | 814 | 831 | 1150 | 1540 | 1660 | 2450 | 3030 |
| 2026-05-03 10:15 | 7.01 | 157 | 3320 (1997) | 231 (1999) | 1270 | 249 | 305 | 814 | 831 | 1150 | 1540 | 1660 | 2450 | 3030 |
| 2026-05-03 10:00 | 7.01 | 157 | 3320 (1997) | 231 (1999) | 1270 | 249 | 305 | 814 | 831 | 1150 | 1540 | 1660 | 2450 | 3030 |
| 2026-05-03 09:45 | 7.01 | 157 | 3320 (1997) | 231 (1999) | 1270 | 249 | 305 | 814 | 831 | 1150 | 1540 | 1660 | 2450 | 3030 |
| 2026-05-03 09:30 | 7.02 | 159 | 3320 (1997) | 231 (1999) | 1270 | 249 | 305 | 814 | 831 | 1150 | 1540 | 1660 | 2450 | 3030 |
| 2026-05-03 09:15 | 7.00 | 154 | 3320 (1997) | 231 (1999) | 1270 | 249 | 305 | 814 | 831 | 1150 | 1540 | 1660 | 2450 | 3030 |
| 2026-05-03 09:00 | 7.01 | 157 | 3320 (1997) | 231 (1999) | 1270 | 249 | 305 | 814 | 831 | 1150 | 1540 | 1660 | 2450 | 3030 |
| 2026-05-03 08:45 | 7.01 | 157 | 3320 (1997) | 231 (1999) | 1270 | 249 | 305 | 814 | 831 | 1150 | 1540 | 1660 | 2450 | 3030 |
| 2026-05-03 08:30 | 7.02 | 159 | 3320 (1997) | 231 (1999) | 1270 | 249 | 305 | 814 | 831 | 1150 | 1540 | 1660 | 2450 | 3030 |
| 2026-05-03 08:15 | 7.01 | 157 | 3320 (1997) | 231 (1999) | 1270 | 249 | 305 | 814 | 831 | 1150 | 1540 | 1660 | 2450 | 3030 |
| 2026-05-03 08:00 | 7.00 | 154 | 3320 (1997) | 231 (1999) | 1270 | 249 | 305 | 814 | 831 | 1150 | 1540 | 1660 | 2450 | 3030 |
| 2026-05-03 07:45 | 7.01 | 157 | 3320 (1997) | 231 (1999) | 1270 | 249 | 305 | 814 | 831 | 1150 | 1540 | 1660 | 2450 | 3030 |
| 2026-05-03 07:30 | 7.00 | 154 | 3320 (1997) | 231 (1999) | 1270 | 249 | 305 | 814 | 831 | 1150 | 1540 | 1660 | 2450 | 3030 |
| 2026-05-03 07:15 | 6.99 | 152 | 3320 (1997) | 231 (1999) | 1270 | 249 | 305 | 814 | 831 | 1150 | 1540 | 1660 | 2450 | 3030 |
| 2026-05-03 07:00 | 7.00 | 154 | 3320 (1997) | 231 (1999) | 1270 | 249 | 305 | 814 | 831 | 1150 | 1540 | 1660 | 2450 | 3030 |
| 2026-05-03 06:45 | 6.99 | 152 | 3320 (1997) | 231 (1999) | 1270 | 249 | 305 | 814 | 831 | 1150 | 1540 | 1660 | 2450 | 3030 |
| 2026-05-03 06:30 | 7.00 | 154 | 3320 (1997) | 231 (1999) | 1270 | 249 | 305 | 814 | 831 | 1150 | 1540 | 1660 | 2450 | 3030 |
| 2026-05-03 06:15 | 7.00 | 154 | 3320 (1997) | 231 (1999) | 1270 | 249 | 305 | 814 | 831 | 1150 | 1540 | 1660 | 2450 | 3030 |
| 2026-05-03 06:00 | 7.00 | 154 | 3320 (1997) | 231 (1999) | 1270 | 249 | 305 | 814 | 831 | 1150 | 1540 | 1660 | 2450 | 3030 |
| 2026-05-03 05:45 | 7.01 | 157 | 3320 (1997) | 231 (1999) | 1270 | 249 | 305 | 814 | 831 | 1150 | 1540 | 1660 | 2450 | 3030 |
| 2026-05-03 05:30 | 7.02 | 159 | 3320 (1997) | 231 (1999) | 1270 | 249 | 305 | 814 | 831 | 1150 | 1540 | 1660 | 2450 | 3030 |
| 2026-05-03 05:15 | 7.01 | 157 | 3320 (1997) | 231 (1999) | 1270 | 249 | 305 | 814 | 831 | 1150 | 1540 | 1660 | 2450 | 3030 |
| 2026-05-03 05:00 | 7.02 | 159 | 3320 (1997) | 231 (1999) | 1270 | 249 | 305 | 814 | 831 | 1150 | 1540 | 1660 | 2450 | 3030 |
| 2026-05-03 04:45 | 7.01 | 157 | 3320 (1997) | 231 (1999) | 1270 | 249 | 305 | 814 | 831 | 1150 | 1540 | 1660 | 2450 | 3030 |
| 2026-05-03 04:30 | 7.02 | 159 | 3320 (1997) | 231 (1999) | 1270 | 249 | 305 | 814 | 831 | 1150 | 1540 | 1660 | 2450 | 3030 |
| 2026-05-03 04:15 | 7.03 | 162 | 3320 (1997) | 231 (1999) | 1270 | 249 | 305 | 814 | 831 | 1150 | 1540 | 1660 | 2450 | 3030 |
| 2026-05-03 04:00 | 7.02 | 159 | 3320 (1997) | 231 (1999) | 1270 | 249 | 305 | 814 | 831 | 1150 | 1540 | 1660 | 2450 | 3030 |
| 2026-05-03 03:45 | 7.03 | 162 | 3320 (1997) | 231 (1999) | 1270 | 249 | 305 | 814 | 831 | 1150 | 1540 | 1660 | 2450 | 3030 |
| 2026-05-03 03:30 | 7.02 | 159 | 3320 (1997) | 231 (1999) | 1270 | 249 | 305 | 814 | 831 | 1150 | 1540 | 1660 | 2450 | 3030 |
| 2026-05-03 03:15 | 7.03 | 162 | 3320 (1997) | 231 (1999) | 1270 | 249 | 305 | 814 | 831 | 1150 | 1540 | 1660 | 2450 | 3030 |
| 2026-05-03 03:00 | 7.04 | 165 | 3320 (1997) | 231 (1999) | 1270 | 249 | 305 | 814 | 831 | 1150 | 1540 | 1660 | 2450 | 3030 |
| 2026-05-03 02:45 | 7.03 | 162 | 3320 (1997) | 231 (1999) | 1270 | 249 | 305 | 814 | 831 | 1150 | 1540 | 1660 | 2450 | 3030 |
| 2026-05-03 02:30 | 7.03 | 162 | 3320 (1997) | 231 (1999) | 1270 | 249 | 305 | 814 | 831 | 1150 | 1540 | 1660 | 2450 | 3030 |
| 2026-05-03 02:15 | 7.03 | 162 | 3320 (1997) | 231 (1999) | 1270 | 249 | 305 | 814 | 831 | 1150 | 1540 | 1660 | 2450 | 3030 |
| 2026-05-03 02:00 | 7.02 | 159 | 3320 (1997) | 231 (1999) | 1270 | 249 | 305 | 814 | 831 | 1150 | 1540 | 1660 | 2450 | 3030 |
| 2026-05-03 01:45 | 7.03 | 162 | 3320 (1997) | 231 (1999) | 1270 | 249 | 305 | 814 | 831 | 1150 | 1540 | 1660 | 2450 | 3030 |
| 2026-05-03 01:30 | 7.02 | 159 | 3320 (1997) | 231 (1999) | 1270 | 249 | 305 | 814 | 831 | 1150 | 1540 | 1660 | 2450 | 3030 |
| 2026-05-03 01:15 | 7.02 | 159 | 3320 (1997) | 231 (1999) | 1270 | 249 | 305 | 814 | 831 | 1150 | 1540 | 1660 | 2450 | 3030 |
| 2026-05-03 01:00 | 7.02 | 3320 (1997) | 231 (1999) | 1270 | 249 | 305 | 814 | 831 | 1150 | 1540 | 1660 | 2450 | 3030 | |
| 2026-05-03 00:45 | 162 | 3320 (1997) | 231 (1999) | 1270 | 249 | 305 | 814 | 831 | 1150 | 1540 | 1660 | 2450 | 3030 | |
| 2026-05-03 00:30 | 7.04 | 165 | 3320 (1997) | 231 (1999) | 1270 | 249 | 305 | 814 | 831 | 1150 | 1540 | 1660 | 2450 | 3030 |
| 2026-05-03 00:15 | 7.03 | 162 | 3320 (1997) | 231 (1999) | 1270 | 249 | 305 | 814 | 831 | 1150 | 1540 | 1660 | 2450 | 3030 |
| 2026-05-03 00:00 | 7.03 | 162 | 3320 (1997) | 231 (1999) | 1270 | 249 | 305 | 814 | 831 | 1150 | 1540 | 1660 | 2450 | 3030 |
| 2026-05-02 23:45 | 7.03 | 162 | 3320 (1997) | 231 (1999) | 1270 | 249 | 305 | 814 | 831 | 1150 | 1540 | 1660 | 2450 | 3030 |
| 2026-05-02 23:30 | 7.03 | 162 | 3320 (1997) | 231 (1999) | 1270 | 249 | 305 | 814 | 831 | 1150 | 1540 | 1660 | 2450 | 3030 |
| 2026-05-02 23:15 | 7.03 | 162 | 3320 (1997) | 231 (1999) | 1270 | 249 | 305 | 814 | 831 | 1150 | 1540 | 1660 | 2450 | 3030 |
| 2026-05-02 23:00 | 7.04 | 165 | 3320 (1997) | 231 (1999) | 1270 | 249 | 305 | 814 | 831 | 1150 | 1540 | 1660 | 2450 | 3030 |
| 2026-05-02 22:45 | 7.03 | 162 | 2490 (2013) | 466 (2004) | 1200 | 509 | 611 | 730 | 769 | 1040 | 1490 | 1520 | 2200 | 2440 |
| 2026-05-02 22:30 | 7.04 | 165 | 2490 (2013) | 466 (2004) | 1200 | 509 | 611 | 730 | 769 | 1040 | 1490 | 1520 | 2200 | 2440 |
| 2026-05-02 22:15 | 7.02 | 159 | 2490 (2013) | 466 (2004) | 1200 | 509 | 611 | 730 | 769 | 1040 | 1490 | 1520 | 2200 | 2440 |
| 2026-05-02 22:00 | 7.03 | 162 | 2490 (2013) | 466 (2004) | 1200 | 509 | 611 | 730 | 769 | 1040 | 1490 | 1520 | 2200 | 2440 |
| 2026-05-02 21:45 | 7.04 | 165 | 2490 (2013) | 466 (2004) | 1200 | 509 | 611 | 730 | 769 | 1040 | 1490 | 1520 | 2200 | 2440 |
| 2026-05-02 21:30 | 7.03 | 162 | 2490 (2013) | 466 (2004) | 1200 | 509 | 611 | 730 | 769 | 1040 | 1490 | 1520 | 2200 | 2440 |
| 2026-05-02 21:15 | 7.01 | 157 | 2490 (2013) | 466 (2004) | 1200 | 509 | 611 | 730 | 769 | 1040 | 1490 | 1520 | 2200 | 2440 |
| 2026-05-02 21:00 | 7.03 | 162 | 2490 (2013) | 466 (2004) | 1200 | 509 | 611 | 730 | 769 | 1040 | 1490 | 1520 | 2200 | 2440 |
| 2026-05-02 20:45 | 7.03 | 162 | 2490 (2013) | 466 (2004) | 1200 | 509 | 611 | 730 | 769 | 1040 | 1490 | 1520 | 2200 | 2440 |
| 2026-05-02 20:30 | 7.03 | 162 | 2490 (2013) | 466 (2004) | 1200 | 509 | 611 | 730 | 769 | 1040 | 1490 | 1520 | 2200 | 2440 |
| 2026-05-02 20:15 | 7.04 | 165 | 2490 (2013) | 466 (2004) | 1200 | 509 | 611 | 730 | 769 | 1040 | 1490 | 1520 | 2200 | 2440 |
| 2026-05-02 20:00 | 7.05 | 167 | 2490 (2013) | 466 (2004) | 1200 | 509 | 611 | 730 | 769 | 1040 | 1490 | 1520 | 2200 | 2440 |
| 2026-05-02 19:45 | 7.05 | 167 | 2490 (2013) | 466 (2004) | 1200 | 509 | 611 | 730 | 769 | 1040 | 1490 | 1520 | 2200 | 2440 |
| 2026-05-02 19:30 | 7.05 | 167 | 2490 (2013) | 466 (2004) | 1200 | 509 | 611 | 730 | 769 | 1040 | 1490 | 1520 | 2200 | 2440 |
| 2026-05-02 19:15 | 7.05 | 167 | 2490 (2013) | 466 (2004) | 1200 | 509 | 611 | 730 | 769 | 1040 | 1490 | 1520 | 2200 | 2440 |
| 2026-05-02 19:00 | 7.05 | 167 | 2490 (2013) | 466 (2004) | 1200 | 509 | 611 | 730 | 769 | 1040 | 1490 | 1520 | 2200 | 2440 |
| 2026-05-02 18:45 | 7.05 | 167 | 2490 (2013) | 466 (2004) | 1200 | 509 | 611 | 730 | 769 | 1040 | 1490 | 1520 | 2200 | 2440 |
| 2026-05-02 18:30 | 7.03 | 162 | 2490 (2013) | 466 (2004) | 1200 | 509 | 611 | 730 | 769 | 1040 | 1490 | 1520 | 2200 | 2440 |
| 2026-05-02 18:15 | 7.02 | 159 | 2490 (2013) | 466 (2004) | 1200 | 509 | 611 | 730 | 769 | 1040 | 1490 | 1520 | 2200 | 2440 |
| 2026-05-02 18:00 | 7.02 | 159 | 2490 (2013) | 466 (2004) | 1200 | 509 | 611 | 730 | 769 | 1040 | 1490 | 1520 | 2200 | 2440 |
| 2026-05-02 17:45 | 7.03 | 162 | 2490 (2013) | 466 (2004) | 1200 | 509 | 611 | 730 | 769 | 1040 | 1490 | 1520 | 2200 | 2440 |
| 2026-05-02 17:30 | 7.03 | 162 | 2490 (2013) | 466 (2004) | 1200 | 509 | 611 | 730 | 769 | 1040 | 1490 | 1520 | 2200 | 2440 |
| 2026-05-02 17:00 | 7.03 | 162 | 2490 (2013) | 466 (2004) | 1200 | 509 | 611 | 730 | 769 | 1040 | 1490 | 1520 | 2200 | 2440 |
| 2026-05-02 16:45 | 7.04 | 165 | 2490 (2013) | 466 (2004) | 1200 | 509 | 611 | 730 | 769 | 1040 | 1490 | 1520 | 2200 | 2440 |
| 2026-05-02 16:30 | 7.03 | 162 | 2490 (2013) | 466 (2004) | 1200 | 509 | 611 | 730 | 769 | 1040 | 1490 | 1520 | 2200 | 2440 |
| 2026-05-02 16:15 | 7.03 | 162 | 2490 (2013) | 466 (2004) | 1200 | 509 | 611 | 730 | 769 | 1040 | 1490 | 1520 | 2200 | 2440 |
| 2026-05-02 16:00 | 7.04 | 165 | 2490 (2013) | 466 (2004) | 1200 | 509 | 611 | 730 | 769 | 1040 | 1490 | 1520 | 2200 | 2440 |
| 2026-05-02 15:45 | 7.04 | 165 | 2490 (2013) | 466 (2004) | 1200 | 509 | 611 | 730 | 769 | 1040 | 1490 | 1520 | 2200 | 2440 |
| 2026-05-02 15:15 | 7.04 | 165 | 2490 (2013) | 466 (2004) | 1200 | 509 | 611 | 730 | 769 | 1040 | 1490 | 1520 | 2200 | 2440 |
| 2026-05-02 15:00 | 7.05 | 167 | 2490 (2013) | 466 (2004) | 1200 | 509 | 611 | 730 | 769 | 1040 | 1490 | 1520 | 2200 | 2440 |
| 2026-05-02 14:45 | 7.04 | 165 | 2490 (2013) | 466 (2004) | 1200 | 509 | 611 | 730 | 769 | 1040 | 1490 | 1520 | 2200 | 2440 |
| 2026-05-02 14:30 | 7.03 | 162 | 2490 (2013) | 466 (2004) | 1200 | 509 | 611 | 730 | 769 | 1040 | 1490 | 1520 | 2200 | 2440 |
| 2026-05-02 14:15 | 7.05 | 167 | 2490 (2013) | 466 (2004) | 1200 | 509 | 611 | 730 | 769 | 1040 | 1490 | 1520 | 2200 | 2440 |
| 2026-05-02 14:00 | 7.05 | 167 | 2490 (2013) | 466 (2004) | 1200 | 509 | 611 | 730 | 769 | 1040 | 1490 | 1520 | 2200 | 2440 |
| 2026-05-02 13:45 | 7.04 | 165 | 2490 (2013) | 466 (2004) | 1200 | 509 | 611 | 730 | 769 | 1040 | 1490 | 1520 | 2200 | 2440 |
| 2026-05-02 13:30 | 7.04 | 165 | 2490 (2013) | 466 (2004) | 1200 | 509 | 611 | 730 | 769 | 1040 | 1490 | 1520 | 2200 | 2440 |
| 2026-05-02 13:15 | 7.04 | 165 | 2490 (2013) | 466 (2004) | 1200 | 509 | 611 | 730 | 769 | 1040 | 1490 | 1520 | 2200 | 2440 |
| 2026-05-02 13:00 | 7.04 | 165 | 2490 (2013) | 466 (2004) | 1200 | 509 | 611 | 730 | 769 | 1040 | 1490 | 1520 | 2200 | 2440 |
| 2026-05-02 12:45 | 7.04 | 165 | 2490 (2013) | 466 (2004) | 1200 | 509 | 611 | 730 | 769 | 1040 | 1490 | 1520 | 2200 | 2440 |
| 2026-05-02 12:30 | 7.05 | 167 | 2490 (2013) | 466 (2004) | 1200 | 509 | 611 | 730 | 769 | 1040 | 1490 | 1520 | 2200 | 2440 |
| 2026-05-02 12:15 | 7.04 | 165 | 2490 (2013) | 466 (2004) | 1200 | 509 | 611 | 730 | 769 | 1040 | 1490 | 1520 | 2200 | 2440 |
| 2026-05-02 12:00 | 7.04 | 165 | 2490 (2013) | 466 (2004) | 1200 | 509 | 611 | 730 | 769 | 1040 | 1490 | 1520 | 2200 | 2440 |
| 2026-05-02 11:45 | 7.05 | 167 | 2490 (2013) | 466 (2004) | 1200 | 509 | 611 | 730 | 769 | 1040 | 1490 | 1520 | 2200 | 2440 |
| 2026-05-02 11:30 | 7.05 | 167 | 2490 (2013) | 466 (2004) | 1200 | 509 | 611 | 730 | 769 | 1040 | 1490 | 1520 | 2200 | 2440 |
| 2026-05-02 11:15 | 7.03 | 162 | 2490 (2013) | 466 (2004) | 1200 | 509 | 611 | 730 | 769 | 1040 | 1490 | 1520 | 2200 | 2440 |
| 2026-05-02 11:00 | 7.03 | 162 | 2490 (2013) | 466 (2004) | 1200 | 509 | 611 | 730 | 769 | 1040 | 1490 | 1520 | 2200 | 2440 |
| 2026-05-02 10:45 | 7.03 | 162 | 2490 (2013) | 466 (2004) | 1200 | 509 | 611 | 730 | 769 | 1040 | 1490 | 1520 | 2200 | 2440 |
| 2026-05-02 10:30 | 7.03 | 162 | 2490 (2013) | 466 (2004) | 1200 | 509 | 611 | 730 | 769 | 1040 | 1490 | 1520 | 2200 | 2440 |
| 2026-05-02 10:15 | 7.03 | 162 | 2490 (2013) | 466 (2004) | 1200 | 509 | 611 | 730 | 769 | 1040 | 1490 | 1520 | 2200 | 2440 |
| 2026-05-02 10:00 | 7.02 | 159 | 2490 (2013) | 466 (2004) | 1200 | 509 | 611 | 730 | 769 | 1040 | 1490 | 1520 | 2200 | 2440 |
| 2026-05-02 09:45 | 7.02 | 159 | 2490 (2013) | 466 (2004) | 1200 | 509 | 611 | 730 | 769 | 1040 | 1490 | 1520 | 2200 | 2440 |
| 2026-05-02 09:30 | 7.04 | 165 | 2490 (2013) | 466 (2004) | 1200 | 509 | 611 | 730 | 769 | 1040 | 1490 | 1520 | 2200 | 2440 |
| 2026-05-02 09:15 | 7.03 | 162 | 2490 (2013) | 466 (2004) | 1200 | 509 | 611 | 730 | 769 | 1040 | 1490 | 1520 | 2200 | 2440 |
| 2026-05-02 09:00 | 7.02 | 159 | 2490 (2013) | 466 (2004) | 1200 | 509 | 611 | 730 | 769 | 1040 | 1490 | 1520 | 2200 | 2440 |
| 2026-05-02 08:45 | 7.04 | 165 | 2490 (2013) | 466 (2004) | 1200 | 509 | 611 | 730 | 769 | 1040 | 1490 | 1520 | 2200 | 2440 |
| 2026-05-02 08:30 | 7.03 | 162 | 2490 (2013) | 466 (2004) | 1200 | 509 | 611 | 730 | 769 | 1040 | 1490 | 1520 | 2200 | 2440 |
| 2026-05-02 08:15 | 7.03 | 162 | 2490 (2013) | 466 (2004) | 1200 | 509 | 611 | 730 | 769 | 1040 | 1490 | 1520 | 2200 | 2440 |
| 2026-05-02 08:00 | 7.02 | 159 | 2490 (2013) | 466 (2004) | 1200 | 509 | 611 | 730 | 769 | 1040 | 1490 | 1520 | 2200 | 2440 |
| 2026-05-02 07:45 | 7.03 | 162 | 2490 (2013) | 466 (2004) | 1200 | 509 | 611 | 730 | 769 | 1040 | 1490 | 1520 | 2200 | 2440 |
| 2026-05-02 07:30 | 7.03 | 162 | 2490 (2013) | 466 (2004) | 1200 | 509 | 611 | 730 | 769 | 1040 | 1490 | 1520 | 2200 | 2440 |
| 2026-05-02 07:15 | 7.03 | 162 | 2490 (2013) | 466 (2004) | 1200 | 509 | 611 | 730 | 769 | 1040 | 1490 | 1520 | 2200 | 2440 |
| 2026-05-02 07:00 | 7.03 | 162 | 2490 (2013) | 466 (2004) | 1200 | 509 | 611 | 730 | 769 | 1040 | 1490 | 1520 | 2200 | 2440 |
| 2026-05-02 06:45 | 7.02 | 159 | 2490 (2013) | 466 (2004) | 1200 | 509 | 611 | 730 | 769 | 1040 | 1490 | 1520 | 2200 | 2440 |
| 2026-05-02 06:30 | 7.03 | 162 | 2490 (2013) | 466 (2004) | 1200 | 509 | 611 | 730 | 769 | 1040 | 1490 | 1520 | 2200 | 2440 |
| 2026-05-02 06:15 | 7.03 | 162 | 2490 (2013) | 466 (2004) | 1200 | 509 | 611 | 730 | 769 | 1040 | 1490 | 1520 | 2200 | 2440 |
| 2026-05-02 06:00 | 7.03 | 162 | 2490 (2013) | 466 (2004) | 1200 | 509 | 611 | 730 | 769 | 1040 | 1490 | 1520 | 2200 | 2440 |
| 2026-05-02 05:45 | 7.03 | 162 | 2490 (2013) | 466 (2004) | 1200 | 509 | 611 | 730 | 769 | 1040 | 1490 | 1520 | 2200 | 2440 |
| 2026-05-02 05:30 | 7.04 | 165 | 2490 (2013) | 466 (2004) | 1200 | 509 | 611 | 730 | 769 | 1040 | 1490 | 1520 | 2200 | 2440 |
| 2026-05-02 05:15 | 7.03 | 162 | 2490 (2013) | 466 (2004) | 1200 | 509 | 611 | 730 | 769 | 1040 | 1490 | 1520 | 2200 | 2440 |
| 2026-05-02 05:00 | 7.03 | 162 | 2490 (2013) | 466 (2004) | 1200 | 509 | 611 | 730 | 769 | 1040 | 1490 | 1520 | 2200 | 2440 |
| 2026-05-02 04:45 | 7.02 | 159 | 2490 (2013) | 466 (2004) | 1200 | 509 | 611 | 730 | 769 | 1040 | 1490 | 1520 | 2200 | 2440 |
| 2026-05-02 04:30 | 7.02 | 159 | 2490 (2013) | 466 (2004) | 1200 | 509 | 611 | 730 | 769 | 1040 | 1490 | 1520 | 2200 | 2440 |
| 2026-05-02 04:15 | 7.03 | 162 | 2490 (2013) | 466 (2004) | 1200 | 509 | 611 | 730 | 769 | 1040 | 1490 | 1520 | 2200 | 2440 |
| 2026-05-02 03:45 | 7.03 | 162 | 2490 (2013) | 466 (2004) | 1200 | 509 | 611 | 730 | 769 | 1040 | 1490 | 1520 | 2200 | 2440 |
| 2026-05-02 03:30 | 7.04 | 165 | 2490 (2013) | 466 (2004) | 1200 | 509 | 611 | 730 | 769 | 1040 | 1490 | 1520 | 2200 | 2440 |
| 2026-05-02 03:15 | 7.03 | 162 | 2490 (2013) | 466 (2004) | 1200 | 509 | 611 | 730 | 769 | 1040 | 1490 | 1520 | 2200 | 2440 |
| 2026-05-02 03:00 | 7.03 | 162 | 2490 (2013) | 466 (2004) | 1200 | 509 | 611 | 730 | 769 | 1040 | 1490 | 1520 | 2200 | 2440 |
| 2026-05-02 02:30 | 7.02 | 159 | 2490 (2013) | 466 (2004) | 1200 | 509 | 611 | 730 | 769 | 1040 | 1490 | 1520 | 2200 | 2440 |
| 2026-05-02 02:15 | 7.02 | 159 | 2490 (2013) | 466 (2004) | 1200 | 509 | 611 | 730 | 769 | 1040 | 1490 | 1520 | 2200 | 2440 |
| 2026-05-02 02:00 | 7.03 | 162 | 2490 (2013) | 466 (2004) | 1200 | 509 | 611 | 730 | 769 | 1040 | 1490 | 1520 | 2200 | 2440 |
| 2026-05-02 01:45 | 7.03 | 162 | 2490 (2013) | 466 (2004) | 1200 | 509 | 611 | 730 | 769 | 1040 | 1490 | 1520 | 2200 | 2440 |
| 2026-05-02 01:30 | 7.04 | 165 | 2490 (2013) | 466 (2004) | 1200 | 509 | 611 | 730 | 769 | 1040 | 1490 | 1520 | 2200 | 2440 |
| 2026-05-02 01:15 | 7.03 | 162 | 2490 (2013) | 466 (2004) | 1200 | 509 | 611 | 730 | 769 | 1040 | 1490 | 1520 | 2200 | 2440 |
| 2026-05-02 01:00 | 7.02 | 159 | 2490 (2013) | 466 (2004) | 1200 | 509 | 611 | 730 | 769 | 1040 | 1490 | 1520 | 2200 | 2440 |
| 2026-05-02 00:45 | 7.04 | 165 | 2490 (2013) | 466 (2004) | 1200 | 509 | 611 | 730 | 769 | 1040 | 1490 | 1520 | 2200 | 2440 |
| 2026-05-02 00:30 | 7.04 | 165 | 2490 (2013) | 466 (2004) | 1200 | 509 | 611 | 730 | 769 | 1040 | 1490 | 1520 | 2200 | 2440 |
| 2026-05-02 00:15 | 7.03 | 162 | 2490 (2013) | 466 (2004) | 1200 | 509 | 611 | 730 | 769 | 1040 | 1490 | 1520 | 2200 | 2440 |
| 2026-05-02 00:00 | 7.04 | 165 | 2490 (2013) | 466 (2004) | 1200 | 509 | 611 | 730 | 769 | 1040 | 1490 | 1520 | 2200 | 2440 |
| 2026-05-01 23:45 | 7.04 | 165 | 2490 (2013) | 466 (2004) | 1200 | 509 | 611 | 730 | 769 | 1040 | 1490 | 1520 | 2200 | 2440 |
| 2026-05-01 23:30 | 7.03 | 162 | 2490 (2013) | 466 (2004) | 1200 | 509 | 611 | 730 | 769 | 1040 | 1490 | 1520 | 2200 | 2440 |
| 2026-05-01 23:15 | 7.03 | 162 | 2490 (2013) | 466 (2004) | 1200 | 509 | 611 | 730 | 769 | 1040 | 1490 | 1520 | 2200 | 2440 |
| 2026-05-01 23:00 | 7.04 | 165 | 2490 (2013) | 466 (2004) | 1200 | 509 | 611 | 730 | 769 | 1040 | 1490 | 1520 | 2200 | 2440 |
| 2026-05-01 22:45 | 7.04 | 165 | 2830 (2020) | 422 (2004) | 1230 | 531 | 643 | 702 | 729 | 1080 | 1530 | 1640 | 2200 | 2710 |
| 2026-05-01 22:30 | 7.04 | 165 | 2830 (2020) | 422 (2004) | 1230 | 531 | 643 | 702 | 729 | 1080 | 1530 | 1640 | 2200 | 2710 |
| 2026-05-01 22:15 | 7.03 | 162 | 2830 (2020) | 422 (2004) | 1230 | 531 | 643 | 702 | 729 | 1080 | 1530 | 1640 | 2200 | 2710 |
| 2026-05-01 22:00 | 7.04 | 165 | 2830 (2020) | 422 (2004) | 1230 | 531 | 643 | 702 | 729 | 1080 | 1530 | 1640 | 2200 | 2710 |
| 2026-05-01 21:45 | 7.04 | 165 | 2830 (2020) | 422 (2004) | 1230 | 531 | 643 | 702 | 729 | 1080 | 1530 | 1640 | 2200 | 2710 |
| 2026-05-01 21:30 | 7.04 | 165 | 2830 (2020) | 422 (2004) | 1230 | 531 | 643 | 702 | 729 | 1080 | 1530 | 1640 | 2200 | 2710 |
| 2026-05-01 21:15 | 7.03 | 162 | 2830 (2020) | 422 (2004) | 1230 | 531 | 643 | 702 | 729 | 1080 | 1530 | 1640 | 2200 | 2710 |
| 2026-05-01 21:00 | 7.04 | 165 | 2830 (2020) | 422 (2004) | 1230 | 531 | 643 | 702 | 729 | 1080 | 1530 | 1640 | 2200 | 2710 |
| 2026-05-01 20:45 | 7.04 | 165 | 2830 (2020) | 422 (2004) | 1230 | 531 | 643 | 702 | 729 | 1080 | 1530 | 1640 | 2200 | 2710 |
| 2026-05-01 20:30 | 7.04 | 165 | 2830 (2020) | 422 (2004) | 1230 | 531 | 643 | 702 | 729 | 1080 | 1530 | 1640 | 2200 | 2710 |
| 2026-05-01 20:15 | 7.05 | 167 | 2830 (2020) | 422 (2004) | 1230 | 531 | 643 | 702 | 729 | 1080 | 1530 | 1640 | 2200 | 2710 |
| 2026-05-01 20:00 | 7.04 | 165 | 2830 (2020) | 422 (2004) | 1230 | 531 | 643 | 702 | 729 | 1080 | 1530 | 1640 | 2200 | 2710 |
| 2026-05-01 19:45 | 7.04 | 165 | 2830 (2020) | 422 (2004) | 1230 | 531 | 643 | 702 | 729 | 1080 | 1530 | 1640 | 2200 | 2710 |
| 2026-05-01 19:30 | 7.04 | 165 | 2830 (2020) | 422 (2004) | 1230 | 531 | 643 | 702 | 729 | 1080 | 1530 | 1640 | 2200 | 2710 |
| 2026-05-01 19:15 | 7.04 | 165 | 2830 (2020) | 422 (2004) | 1230 | 531 | 643 | 702 | 729 | 1080 | 1530 | 1640 | 2200 | 2710 |
| 2026-05-01 19:00 | 7.04 | 165 | 2830 (2020) | 422 (2004) | 1230 | 531 | 643 | 702 | 729 | 1080 | 1530 | 1640 | 2200 | 2710 |
| 2026-05-01 18:45 | 7.05 | 167 | 2830 (2020) | 422 (2004) | 1230 | 531 | 643 | 702 | 729 | 1080 | 1530 | 1640 | 2200 | 2710 |
| 2026-05-01 18:30 | 7.04 | 165 | 2830 (2020) | 422 (2004) | 1230 | 531 | 643 | 702 | 729 | 1080 | 1530 | 1640 | 2200 | 2710 |
| 2026-05-01 18:15 | 7.04 | 165 | 2830 (2020) | 422 (2004) | 1230 | 531 | 643 | 702 | 729 | 1080 | 1530 | 1640 | 2200 | 2710 |
| 2026-05-01 18:00 | 7.04 | 165 | 2830 (2020) | 422 (2004) | 1230 | 531 | 643 | 702 | 729 | 1080 | 1530 | 1640 | 2200 | 2710 |
| 2026-05-01 17:45 | 7.04 | 165 | 2830 (2020) | 422 (2004) | 1230 | 531 | 643 | 702 | 729 | 1080 | 1530 | 1640 | 2200 | 2710 |
| 2026-05-01 17:30 | 7.02 | 159 | 2830 (2020) | 422 (2004) | 1230 | 531 | 643 | 702 | 729 | 1080 | 1530 | 1640 | 2200 | 2710 |
| 2026-05-01 17:15 | 7.04 | 165 | 2830 (2020) | 422 (2004) | 1230 | 531 | 643 | 702 | 729 | 1080 | 1530 | 1640 | 2200 | 2710 |
| 2026-05-01 17:00 | 7.04 | 165 | 2830 (2020) | 422 (2004) | 1230 | 531 | 643 | 702 | 729 | 1080 | 1530 | 1640 | 2200 | 2710 |
| 2026-05-01 16:45 | 7.04 | 165 | 2830 (2020) | 422 (2004) | 1230 | 531 | 643 | 702 | 729 | 1080 | 1530 | 1640 | 2200 | 2710 |
| 2026-05-01 16:30 | 7.02 | 159 | 2830 (2020) | 422 (2004) | 1230 | 531 | 643 | 702 | 729 | 1080 | 1530 | 1640 | 2200 | 2710 |
| 2026-05-01 16:15 | 7.04 | 165 | 2830 (2020) | 422 (2004) | 1230 | 531 | 643 | 702 | 729 | 1080 | 1530 | 1640 | 2200 | 2710 |
| 2026-05-01 15:15 | 7.05 | 167 | 2830 (2020) | 422 (2004) | 1230 | 531 | 643 | 702 | 729 | 1080 | 1530 | 1640 | 2200 | 2710 |
| 2026-05-01 14:45 | 7.05 | 167 | 2830 (2020) | 422 (2004) | 1230 | 531 | 643 | 702 | 729 | 1080 | 1530 | 1640 | 2200 | 2710 |
| 2026-05-01 14:30 | 7.04 | 165 | 2830 (2020) | 422 (2004) | 1230 | 531 | 643 | 702 | 729 | 1080 | 1530 | 1640 | 2200 | 2710 |
| 2026-05-01 14:15 | 7.05 | 167 | 2830 (2020) | 422 (2004) | 1230 | 531 | 643 | 702 | 729 | 1080 | 1530 | 1640 | 2200 | 2710 |
| 2026-05-01 14:00 | 7.05 | 167 | 2830 (2020) | 422 (2004) | 1230 | 531 | 643 | 702 | 729 | 1080 | 1530 | 1640 | 2200 | 2710 |
| 2026-05-01 13:15 | 7.05 | 167 | 2830 (2020) | 422 (2004) | 1230 | 531 | 643 | 702 | 729 | 1080 | 1530 | 1640 | 2200 | 2710 |
| 2026-05-01 13:00 | 7.04 | 165 | 2830 (2020) | 422 (2004) | 1230 | 531 | 643 | 702 | 729 | 1080 | 1530 | 1640 | 2200 | 2710 |
| 2026-05-01 12:45 | 7.04 | 165 | 2830 (2020) | 422 (2004) | 1230 | 531 | 643 | 702 | 729 | 1080 | 1530 | 1640 | 2200 | 2710 |
| 2026-05-01 12:30 | 7.04 | 165 | 2830 (2020) | 422 (2004) | 1230 | 531 | 643 | 702 | 729 | 1080 | 1530 | 1640 | 2200 | 2710 |
| 2026-05-01 12:15 | 7.05 | 167 | 2830 (2020) | 422 (2004) | 1230 | 531 | 643 | 702 | 729 | 1080 | 1530 | 1640 | 2200 | 2710 |
| 2026-05-01 12:00 | 7.05 | 167 | 2830 (2020) | 422 (2004) | 1230 | 531 | 643 | 702 | 729 | 1080 | 1530 | 1640 | 2200 | 2710 |
| 2026-05-01 11:45 | 7.04 | 165 | 2830 (2020) | 422 (2004) | 1230 | 531 | 643 | 702 | 729 | 1080 | 1530 | 1640 | 2200 | 2710 |
| 2026-05-01 11:30 | 7.05 | 167 | 2830 (2020) | 422 (2004) | 1230 | 531 | 643 | 702 | 729 | 1080 | 1530 | 1640 | 2200 | 2710 |
| 2026-05-01 11:15 | 7.06 | 170 | 2830 (2020) | 422 (2004) | 1230 | 531 | 643 | 702 | 729 | 1080 | 1530 | 1640 | 2200 | 2710 |
| 2026-05-01 11:00 | 7.05 | 167 | 2830 (2020) | 422 (2004) | 1230 | 531 | 643 | 702 | 729 | 1080 | 1530 | 1640 | 2200 | 2710 |
| 2026-05-01 10:45 | 7.05 | 167 | 2830 (2020) | 422 (2004) | 1230 | 531 | 643 | 702 | 729 | 1080 | 1530 | 1640 | 2200 | 2710 |
| 2026-05-01 10:30 | 7.05 | 167 | 2830 (2020) | 422 (2004) | 1230 | 531 | 643 | 702 | 729 | 1080 | 1530 | 1640 | 2200 | 2710 |
| 2026-05-01 10:15 | 7.04 | 165 | 2830 (2020) | 422 (2004) | 1230 | 531 | 643 | 702 | 729 | 1080 | 1530 | 1640 | 2200 | 2710 |
| 2026-05-01 10:00 | 7.05 | 167 | 2830 (2020) | 422 (2004) | 1230 | 531 | 643 | 702 | 729 | 1080 | 1530 | 1640 | 2200 | 2710 |
| 2026-05-01 09:45 | 7.06 | 170 | 2830 (2020) | 422 (2004) | 1230 | 531 | 643 | 702 | 729 | 1080 | 1530 | 1640 | 2200 | 2710 |
| 2026-05-01 09:15 | 7.05 | 167 | 2830 (2020) | 422 (2004) | 1230 | 531 | 643 | 702 | 729 | 1080 | 1530 | 1640 | 2200 | 2710 |
| 2026-05-01 09:00 | 7.04 | 165 | 2830 (2020) | 422 (2004) | 1230 | 531 | 643 | 702 | 729 | 1080 | 1530 | 1640 | 2200 | 2710 |
| 2026-05-01 08:45 | 7.05 | 167 | 2830 (2020) | 422 (2004) | 1230 | 531 | 643 | 702 | 729 | 1080 | 1530 | 1640 | 2200 | 2710 |
| 2026-05-01 08:30 | 7.05 | 167 | 2830 (2020) | 422 (2004) | 1230 | 531 | 643 | 702 | 729 | 1080 | 1530 | 1640 | 2200 | 2710 |
| 2026-05-01 08:15 | 7.04 | 165 | 2830 (2020) | 422 (2004) | 1230 | 531 | 643 | 702 | 729 | 1080 | 1530 | 1640 | 2200 | 2710 |
| 2026-05-01 08:00 | 7.05 | 167 | 2830 (2020) | 422 (2004) | 1230 | 531 | 643 | 702 | 729 | 1080 | 1530 | 1640 | 2200 | 2710 |
| 2026-05-01 07:45 | 7.08 | 175 | 2830 (2020) | 422 (2004) | 1230 | 531 | 643 | 702 | 729 | 1080 | 1530 | 1640 | 2200 | 2710 |
| 2026-05-01 07:30 | 7.06 | 170 | 2830 (2020) | 422 (2004) | 1230 | 531 | 643 | 702 | 729 | 1080 | 1530 | 1640 | 2200 | 2710 |
| 2026-05-01 07:15 | 7.05 | 167 | 2830 (2020) | 422 (2004) | 1230 | 531 | 643 | 702 | 729 | 1080 | 1530 | 1640 | 2200 | 2710 |
| 2026-05-01 07:00 | 7.04 | 165 | 2830 (2020) | 422 (2004) | 1230 | 531 | 643 | 702 | 729 | 1080 | 1530 | 1640 | 2200 | 2710 |
| 2026-05-01 06:45 | 7.04 | 165 | 2830 (2020) | 422 (2004) | 1230 | 531 | 643 | 702 | 729 | 1080 | 1530 | 1640 | 2200 | 2710 |
| 2026-05-01 06:30 | 7.04 | 165 | 2830 (2020) | 422 (2004) | 1230 | 531 | 643 | 702 | 729 | 1080 | 1530 | 1640 | 2200 | 2710 |
| 2026-05-01 06:15 | 7.05 | 167 | 2830 (2020) | 422 (2004) | 1230 | 531 | 643 | 702 | 729 | 1080 | 1530 | 1640 | 2200 | 2710 |
| 2026-05-01 06:00 | 7.05 | 167 | 2830 (2020) | 422 (2004) | 1230 | 531 | 643 | 702 | 729 | 1080 | 1530 | 1640 | 2200 | 2710 |
| 2026-05-01 05:45 | 7.05 | 167 | 2830 (2020) | 422 (2004) | 1230 | 531 | 643 | 702 | 729 | 1080 | 1530 | 1640 | 2200 | 2710 |
| 2026-05-01 05:30 | 7.06 | 170 | 2830 (2020) | 422 (2004) | 1230 | 531 | 643 | 702 | 729 | 1080 | 1530 | 1640 | 2200 | 2710 |
| 2026-05-01 05:15 | 7.05 | 167 | 2830 (2020) | 422 (2004) | 1230 | 531 | 643 | 702 | 729 | 1080 | 1530 | 1640 | 2200 | 2710 |
| 2026-05-01 05:00 | 7.06 | 170 | 2830 (2020) | 422 (2004) | 1230 | 531 | 643 | 702 | 729 | 1080 | 1530 | 1640 | 2200 | 2710 |
| 2026-05-01 04:45 | 7.05 | 167 | 2830 (2020) | 422 (2004) | 1230 | 531 | 643 | 702 | 729 | 1080 | 1530 | 1640 | 2200 | 2710 |
| 2026-05-01 04:30 | 7.05 | 167 | 2830 (2020) | 422 (2004) | 1230 | 531 | 643 | 702 | 729 | 1080 | 1530 | 1640 | 2200 | 2710 |
| 2026-05-01 04:15 | 7.05 | 167 | 2830 (2020) | 422 (2004) | 1230 | 531 | 643 | 702 | 729 | 1080 | 1530 | 1640 | 2200 | 2710 |
| 2026-05-01 04:00 | 7.04 | 165 | 2830 (2020) | 422 (2004) | 1230 | 531 | 643 | 702 | 729 | 1080 | 1530 | 1640 | 2200 | 2710 |
| 2026-05-01 03:45 | 7.03 | 162 | 2830 (2020) | 422 (2004) | 1230 | 531 | 643 | 702 | 729 | 1080 | 1530 | 1640 | 2200 | 2710 |
| 2026-05-01 03:30 | 7.05 | 167 | 2830 (2020) | 422 (2004) | 1230 | 531 | 643 | 702 | 729 | 1080 | 1530 | 1640 | 2200 | 2710 |
| 2026-05-01 03:15 | 7.05 | 167 | 2830 (2020) | 422 (2004) | 1230 | 531 | 643 | 702 | 729 | 1080 | 1530 | 1640 | 2200 | 2710 |
| 2026-05-01 03:00 | 7.05 | 167 | 2830 (2020) | 422 (2004) | 1230 | 531 | 643 | 702 | 729 | 1080 | 1530 | 1640 | 2200 | 2710 |
| 2026-05-01 02:45 | 7.05 | 167 | 2830 (2020) | 422 (2004) | 1230 | 531 | 643 | 702 | 729 | 1080 | 1530 | 1640 | 2200 | 2710 |
| 2026-05-01 02:30 | 7.06 | 170 | 2830 (2020) | 422 (2004) | 1230 | 531 | 643 | 702 | 729 | 1080 | 1530 | 1640 | 2200 | 2710 |
| 2026-05-01 02:15 | 7.05 | 167 | 2830 (2020) | 422 (2004) | 1230 | 531 | 643 | 702 | 729 | 1080 | 1530 | 1640 | 2200 | 2710 |
| 2026-05-01 02:00 | 7.05 | 167 | 2830 (2020) | 422 (2004) | 1230 | 531 | 643 | 702 | 729 | 1080 | 1530 | 1640 | 2200 | 2710 |
| 2026-05-01 01:45 | 7.05 | 167 | 2830 (2020) | 422 (2004) | 1230 | 531 | 643 | 702 | 729 | 1080 | 1530 | 1640 | 2200 | 2710 |
| 2026-05-01 01:30 | 7.06 | 170 | 2830 (2020) | 422 (2004) | 1230 | 531 | 643 | 702 | 729 | 1080 | 1530 | 1640 | 2200 | 2710 |
| 2026-05-01 01:15 | 7.06 | 170 | 2830 (2020) | 422 (2004) | 1230 | 531 | 643 | 702 | 729 | 1080 | 1530 | 1640 | 2200 | 2710 |
| 2026-05-01 01:00 | 7.05 | 167 | 2830 (2020) | 422 (2004) | 1230 | 531 | 643 | 702 | 729 | 1080 | 1530 | 1640 | 2200 | 2710 |
| 2026-05-01 00:45 | 7.06 | 170 | 2830 (2020) | 422 (2004) | 1230 | 531 | 643 | 702 | 729 | 1080 | 1530 | 1640 | 2200 | 2710 |
| 2026-05-01 00:30 | 7.07 | 173 | 2830 (2020) | 422 (2004) | 1230 | 531 | 643 | 702 | 729 | 1080 | 1530 | 1640 | 2200 | 2710 |
| 2026-05-01 00:15 | 7.06 | 170 | 2830 (2020) | 422 (2004) | 1230 | 531 | 643 | 702 | 729 | 1080 | 1530 | 1640 | 2200 | 2710 |
| 2026-05-01 00:00 | 7.06 | 170 | 2830 (2020) | 422 (2004) | 1230 | 531 | 643 | 702 | 729 | 1080 | 1530 | 1640 | 2200 | 2710 |
| 2026-04-30 23:45 | 7.06 | 170 | 2830 (2020) | 422 (2004) | 1230 | 531 | 643 | 702 | 729 | 1080 | 1530 | 1640 | 2200 | 2710 |
| 2026-04-30 23:30 | 7.06 | 170 | 2830 (2020) | 422 (2004) | 1230 | 531 | 643 | 702 | 729 | 1080 | 1530 | 1640 | 2200 | 2710 |
| 2026-04-30 23:15 | 7.06 | 170 | 2830 (2020) | 422 (2004) | 1230 | 531 | 643 | 702 | 729 | 1080 | 1530 | 1640 | 2200 | 2710 |
| 2026-04-30 23:00 | 7.06 | 170 | 2830 (2020) | 422 (2004) | 1230 | 531 | 643 | 702 | 729 | 1080 | 1530 | 1640 | 2200 | 2710 |
| 2026-04-30 22:45 | 7.06 | 170 | 4860 (2020) | 442 (2002) | 1330 | 484 | 636 | 710 | 746 | 1140 | 1360 | 1420 | 2720 | 4110 |
| 2026-04-30 22:30 | 7.08 | 175 | 4860 (2020) | 442 (2002) | 1330 | 484 | 636 | 710 | 746 | 1140 | 1360 | 1420 | 2720 | 4110 |
| 2026-04-30 22:15 | 7.06 | 170 | 4860 (2020) | 442 (2002) | 1330 | 484 | 636 | 710 | 746 | 1140 | 1360 | 1420 | 2720 | 4110 |
| 2026-04-30 22:00 | 7.05 | 167 | 4860 (2020) | 442 (2002) | 1330 | 484 | 636 | 710 | 746 | 1140 | 1360 | 1420 | 2720 | 4110 |
| 2026-04-30 21:45 | 7.06 | 170 | 4860 (2020) | 442 (2002) | 1330 | 484 | 636 | 710 | 746 | 1140 | 1360 | 1420 | 2720 | 4110 |
| 2026-04-30 21:30 | 7.06 | 170 | 4860 (2020) | 442 (2002) | 1330 | 484 | 636 | 710 | 746 | 1140 | 1360 | 1420 | 2720 | 4110 |
| 2026-04-30 21:15 | 7.06 | 170 | 4860 (2020) | 442 (2002) | 1330 | 484 | 636 | 710 | 746 | 1140 | 1360 | 1420 | 2720 | 4110 |
| 2026-04-30 21:00 | 7.07 | 173 | 4860 (2020) | 442 (2002) | 1330 | 484 | 636 | 710 | 746 | 1140 | 1360 | 1420 | 2720 | 4110 |
| 2026-04-30 20:45 | 7.08 | 175 | 4860 (2020) | 442 (2002) | 1330 | 484 | 636 | 710 | 746 | 1140 | 1360 | 1420 | 2720 | 4110 |
| 2026-04-30 20:30 | 7.08 | 175 | 4860 (2020) | 442 (2002) | 1330 | 484 | 636 | 710 | 746 | 1140 | 1360 | 1420 | 2720 | 4110 |
| 2026-04-30 20:15 | 7.08 | 175 | 4860 (2020) | 442 (2002) | 1330 | 484 | 636 | 710 | 746 | 1140 | 1360 | 1420 | 2720 | 4110 |
| 2026-04-30 20:00 | 7.08 | 175 | 4860 (2020) | 442 (2002) | 1330 | 484 | 636 | 710 | 746 | 1140 | 1360 | 1420 | 2720 | 4110 |
| 2026-04-30 19:45 | 7.09 | 178 | 4860 (2020) | 442 (2002) | 1330 | 484 | 636 | 710 | 746 | 1140 | 1360 | 1420 | 2720 | 4110 |
| 2026-04-30 19:30 | 7.11 | 184 | 4860 (2020) | 442 (2002) | 1330 | 484 | 636 | 710 | 746 | 1140 | 1360 | 1420 | 2720 | 4110 |
| 2026-04-30 19:00 | 7.21 | 214 | 4860 (2020) | 442 (2002) | 1330 | 484 | 636 | 710 | 746 | 1140 | 1360 | 1420 | 2720 | 4110 |
| 2026-04-30 18:45 | 7.81 | 464 | 4860 (2020) | 442 (2002) | 1330 | 484 | 636 | 710 | 746 | 1140 | 1360 | 1420 | 2720 | 4110 |
| 2026-04-30 18:15 | 8.91 | 1290 | 4860 (2020) | 442 (2002) | 1330 | 484 | 636 | 710 | 746 | 1140 | 1360 | 1420 | 2720 | 4110 |
| 2026-04-30 17:45 | 8.91 | 1290 | 4860 (2020) | 442 (2002) | 1330 | 484 | 636 | 710 | 746 | 1140 | 1360 | 1420 | 2720 | 4110 |
| 2026-04-30 17:30 | 8.91 | 1290 | 4860 (2020) | 442 (2002) | 1330 | 484 | 636 | 710 | 746 | 1140 | 1360 | 1420 | 2720 | 4110 |
| 2026-04-30 17:15 | 8.91 | 1290 | 4860 (2020) | 442 (2002) | 1330 | 484 | 636 | 710 | 746 | 1140 | 1360 | 1420 | 2720 | 4110 |
| 2026-04-30 17:00 | 8.91 | 1290 | 4860 (2020) | 442 (2002) | 1330 | 484 | 636 | 710 | 746 | 1140 | 1360 | 1420 | 2720 | 4110 |
| 2026-04-30 16:45 | 8.91 | 1290 | 4860 (2020) | 442 (2002) | 1330 | 484 | 636 | 710 | 746 | 1140 | 1360 | 1420 | 2720 | 4110 |
| 2026-04-30 16:15 | 8.91 | 1290 | 4860 (2020) | 442 (2002) | 1330 | 484 | 636 | 710 | 746 | 1140 | 1360 | 1420 | 2720 | 4110 |
| 2026-04-30 16:00 | 8.91 | 1290 | 4860 (2020) | 442 (2002) | 1330 | 484 | 636 | 710 | 746 | 1140 | 1360 | 1420 | 2720 | 4110 |
| 2026-04-30 15:45 | 8.91 | 1290 | 4860 (2020) | 442 (2002) | 1330 | 484 | 636 | 710 | 746 | 1140 | 1360 | 1420 | 2720 | 4110 |
| 2026-04-30 15:15 | 8.92 | 1300 | 4860 (2020) | 442 (2002) | 1330 | 484 | 636 | 710 | 746 | 1140 | 1360 | 1420 | 2720 | 4110 |
| 2026-04-30 15:00 | 8.91 | 1290 | 4860 (2020) | 442 (2002) | 1330 | 484 | 636 | 710 | 746 | 1140 | 1360 | 1420 | 2720 | 4110 |
| 2026-04-30 14:30 | 8.91 | 1290 | 4860 (2020) | 442 (2002) | 1330 | 484 | 636 | 710 | 746 | 1140 | 1360 | 1420 | 2720 | 4110 |
| 2026-04-30 13:45 | 8.91 | 1290 | 4860 (2020) | 442 (2002) | 1330 | 484 | 636 | 710 | 746 | 1140 | 1360 | 1420 | 2720 | 4110 |
| 2026-04-30 13:30 | 8.91 | 1290 | 4860 (2020) | 442 (2002) | 1330 | 484 | 636 | 710 | 746 | 1140 | 1360 | 1420 | 2720 | 4110 |
| 2026-04-30 13:00 | 8.91 | 1290 | 4860 (2020) | 442 (2002) | 1330 | 484 | 636 | 710 | 746 | 1140 | 1360 | 1420 | 2720 | 4110 |
| 2026-04-30 09:45 | 7.08 | 175 | 4860 (2020) | 442 (2002) | 1330 | 484 | 636 | 710 | 746 | 1140 | 1360 | 1420 | 2720 | 4110 |
| 2026-04-30 09:30 | 7.08 | 175 | 4860 (2020) | 442 (2002) | 1330 | 484 | 636 | 710 | 746 | 1140 | 1360 | 1420 | 2720 | 4110 |
| 2026-04-30 09:15 | 7.09 | 178 | 4860 (2020) | 442 (2002) | 1330 | 484 | 636 | 710 | 746 | 1140 | 1360 | 1420 | 2720 | 4110 |
| 2026-04-30 09:00 | 7.09 | 178 | 4860 (2020) | 442 (2002) | 1330 | 484 | 636 | 710 | 746 | 1140 | 1360 | 1420 | 2720 | 4110 |
| 2026-04-30 08:45 | 7.09 | 178 | 4860 (2020) | 442 (2002) | 1330 | 484 | 636 | 710 | 746 | 1140 | 1360 | 1420 | 2720 | 4110 |
| 2026-04-30 08:30 | 7.08 | 175 | 4860 (2020) | 442 (2002) | 1330 | 484 | 636 | 710 | 746 | 1140 | 1360 | 1420 | 2720 | 4110 |
| 2026-04-30 08:15 | 7.09 | 178 | 4860 (2020) | 442 (2002) | 1330 | 484 | 636 | 710 | 746 | 1140 | 1360 | 1420 | 2720 | 4110 |
| 2026-04-30 08:00 | 7.09 | 178 | 4860 (2020) | 442 (2002) | 1330 | 484 | 636 | 710 | 746 | 1140 | 1360 | 1420 | 2720 | 4110 |
| 2026-04-30 07:45 | 7.09 | 178 | 4860 (2020) | 442 (2002) | 1330 | 484 | 636 | 710 | 746 | 1140 | 1360 | 1420 | 2720 | 4110 |
| 2026-04-30 07:30 | 7.09 | 178 | 4860 (2020) | 442 (2002) | 1330 | 484 | 636 | 710 | 746 | 1140 | 1360 | 1420 | 2720 | 4110 |
| 2026-04-30 07:15 | 7.09 | 178 | 4860 (2020) | 442 (2002) | 1330 | 484 | 636 | 710 | 746 | 1140 | 1360 | 1420 | 2720 | 4110 |
| 2026-04-30 06:45 | 7.08 | 175 | 4860 (2020) | 442 (2002) | 1330 | 484 | 636 | 710 | 746 | 1140 | 1360 | 1420 | 2720 | 4110 |
| 2026-04-30 06:30 | 7.10 | 181 | 4860 (2020) | 442 (2002) | 1330 | 484 | 636 | 710 | 746 | 1140 | 1360 | 1420 | 2720 | 4110 |
| 2026-04-30 06:15 | 7.09 | 178 | 4860 (2020) | 442 (2002) | 1330 | 484 | 636 | 710 | 746 | 1140 | 1360 | 1420 | 2720 | 4110 |
| 2026-04-30 06:00 | 7.11 | 184 | 4860 (2020) | 442 (2002) | 1330 | 484 | 636 | 710 | 746 | 1140 | 1360 | 1420 | 2720 | 4110 |
| 2026-04-30 05:45 | 7.10 | 181 | 4860 (2020) | 442 (2002) | 1330 | 484 | 636 | 710 | 746 | 1140 | 1360 | 1420 | 2720 | 4110 |
| 2026-04-30 05:30 | 7.11 | 184 | 4860 (2020) | 442 (2002) | 1330 | 484 | 636 | 710 | 746 | 1140 | 1360 | 1420 | 2720 | 4110 |
| 2026-04-30 05:15 | 7.09 | 178 | 4860 (2020) | 442 (2002) | 1330 | 484 | 636 | 710 | 746 | 1140 | 1360 | 1420 | 2720 | 4110 |
| 2026-04-30 05:00 | 7.10 | 181 | 4860 (2020) | 442 (2002) | 1330 | 484 | 636 | 710 | 746 | 1140 | 1360 | 1420 | 2720 | 4110 |
| 2026-04-30 04:45 | 7.10 | 181 | 4860 (2020) | 442 (2002) | 1330 | 484 | 636 | 710 | 746 | 1140 | 1360 | 1420 | 2720 | 4110 |
| 2026-04-30 04:30 | 7.11 | 184 | 4860 (2020) | 442 (2002) | 1330 | 484 | 636 | 710 | 746 | 1140 | 1360 | 1420 | 2720 | 4110 |
| 2026-04-30 04:15 | 7.11 | 184 | 4860 (2020) | 442 (2002) | 1330 | 484 | 636 | 710 | 746 | 1140 | 1360 | 1420 | 2720 | 4110 |
| 2026-04-30 04:00 | 7.11 | 184 | 4860 (2020) | 442 (2002) | 1330 | 484 | 636 | 710 | 746 | 1140 | 1360 | 1420 | 2720 | 4110 |
| 2026-04-30 03:45 | 7.13 | 189 | 4860 (2020) | 442 (2002) | 1330 | 484 | 636 | 710 | 746 | 1140 | 1360 | 1420 | 2720 | 4110 |
| 2026-04-30 03:30 | 7.12 | 187 | 4860 (2020) | 442 (2002) | 1330 | 484 | 636 | 710 | 746 | 1140 | 1360 | 1420 | 2720 | 4110 |
| 2026-04-30 03:15 | 7.11 | 184 | 4860 (2020) | 442 (2002) | 1330 | 484 | 636 | 710 | 746 | 1140 | 1360 | 1420 | 2720 | 4110 |
| 2026-04-30 03:00 | 7.12 | 187 | 4860 (2020) | 442 (2002) | 1330 | 484 | 636 | 710 | 746 | 1140 | 1360 | 1420 | 2720 | 4110 |
| 2026-04-30 02:45 | 7.12 | 187 | 4860 (2020) | 442 (2002) | 1330 | 484 | 636 | 710 | 746 | 1140 | 1360 | 1420 | 2720 | 4110 |
| 2026-04-30 02:30 | 7.12 | 187 | 4860 (2020) | 442 (2002) | 1330 | 484 | 636 | 710 | 746 | 1140 | 1360 | 1420 | 2720 | 4110 |
| 2026-04-30 02:15 | 7.13 | 189 | 4860 (2020) | 442 (2002) | 1330 | 484 | 636 | 710 | 746 | 1140 | 1360 | 1420 | 2720 | 4110 |
| 2026-04-30 02:00 | 7.12 | 187 | 4860 (2020) | 442 (2002) | 1330 | 484 | 636 | 710 | 746 | 1140 | 1360 | 1420 | 2720 | 4110 |
| 2026-04-30 01:45 | 7.12 | 187 | 4860 (2020) | 442 (2002) | 1330 | 484 | 636 | 710 | 746 | 1140 | 1360 | 1420 | 2720 | 4110 |
| 2026-04-30 01:30 | 7.12 | 187 | 4860 (2020) | 442 (2002) | 1330 | 484 | 636 | 710 | 746 | 1140 | 1360 | 1420 | 2720 | 4110 |
| 2026-04-30 01:15 | 7.12 | 187 | 4860 (2020) | 442 (2002) | 1330 | 484 | 636 | 710 | 746 | 1140 | 1360 | 1420 | 2720 | 4110 |
| 2026-04-30 01:00 | 7.12 | 187 | 4860 (2020) | 442 (2002) | 1330 | 484 | 636 | 710 | 746 | 1140 | 1360 | 1420 | 2720 | 4110 |
| 2026-04-30 00:45 | 7.14 | 192 | 4860 (2020) | 442 (2002) | 1330 | 484 | 636 | 710 | 746 | 1140 | 1360 | 1420 | 2720 | 4110 |
| 2026-04-30 00:30 | 7.15 | 195 | 4860 (2020) | 442 (2002) | 1330 | 484 | 636 | 710 | 746 | 1140 | 1360 | 1420 | 2720 | 4110 |
| 2026-04-30 00:15 | 7.12 | 187 | 4860 (2020) | 442 (2002) | 1330 | 484 | 636 | 710 | 746 | 1140 | 1360 | 1420 | 2720 | 4110 |
| 2026-04-30 00:00 | 7.12 | 187 | 4860 (2020) | 442 (2002) | 1330 | 484 | 636 | 710 | 746 | 1140 | 1360 | 1420 | 2720 | 4110 |
| 2026-04-29 23:45 | 7.10 | 181 | 4860 (2020) | 442 (2002) | 1330 | 484 | 636 | 710 | 746 | 1140 | 1360 | 1420 | 2720 | 4110 |
| 2026-04-29 23:15 | 7.12 | 187 | 4860 (2020) | 442 (2002) | 1330 | 484 | 636 | 710 | 746 | 1140 | 1360 | 1420 | 2720 | 4110 |
| 2026-04-29 23:00 | 7.12 | 187 | 4860 (2020) | 442 (2002) | 1330 | 484 | 636 | 710 | 746 | 1140 | 1360 | 1420 | 2720 | 4110 |
| 2026-04-29 22:45 | 7.12 | 187 | 3680 (1997) | 368 (2007) | 1430 | 454 | 775 | 879 | 952 | 1320 | 1730 | 1790 | 2380 | 3420 |
| 2026-04-29 22:30 | 7.13 | 189 | 3680 (1997) | 368 (2007) | 1430 | 454 | 775 | 879 | 952 | 1320 | 1730 | 1790 | 2380 | 3420 |
| 2026-04-29 22:15 | 7.12 | 187 | 3680 (1997) | 368 (2007) | 1430 | 454 | 775 | 879 | 952 | 1320 | 1730 | 1790 | 2380 | 3420 |
| 2026-04-29 22:00 | 7.12 | 187 | 3680 (1997) | 368 (2007) | 1430 | 454 | 775 | 879 | 952 | 1320 | 1730 | 1790 | 2380 | 3420 |
| 2026-04-29 21:45 | 7.13 | 189 | 3680 (1997) | 368 (2007) | 1430 | 454 | 775 | 879 | 952 | 1320 | 1730 | 1790 | 2380 | 3420 |
| 2026-04-29 21:30 | 7.13 | 189 | 3680 (1997) | 368 (2007) | 1430 | 454 | 775 | 879 | 952 | 1320 | 1730 | 1790 | 2380 | 3420 |
| 2026-04-29 21:15 | 7.13 | 189 | 3680 (1997) | 368 (2007) | 1430 | 454 | 775 | 879 | 952 | 1320 | 1730 | 1790 | 2380 | 3420 |
| 2026-04-29 21:00 | 7.15 | 195 | 3680 (1997) | 368 (2007) | 1430 | 454 | 775 | 879 | 952 | 1320 | 1730 | 1790 | 2380 | 3420 |
| 2026-04-29 20:45 | 7.37 | 268 | 3680 (1997) | 368 (2007) | 1430 | 454 | 775 | 879 | 952 | 1320 | 1730 | 1790 | 2380 | 3420 |
| 2026-04-29 20:30 | 8.07 | 616 | 3680 (1997) | 368 (2007) | 1430 | 454 | 775 | 879 | 952 | 1320 | 1730 | 1790 | 2380 | 3420 |
| 2026-04-29 20:15 | 8.84 | 1220 | 3680 (1997) | 368 (2007) | 1430 | 454 | 775 | 879 | 952 | 1320 | 1730 | 1790 | 2380 | 3420 |
| 2026-04-29 20:00 | 8.93 | 1310 | 3680 (1997) | 368 (2007) | 1430 | 454 | 775 | 879 | 952 | 1320 | 1730 | 1790 | 2380 | 3420 |
| 2026-04-29 19:45 | 8.93 | 1310 | 3680 (1997) | 368 (2007) | 1430 | 454 | 775 | 879 | 952 | 1320 | 1730 | 1790 | 2380 | 3420 |
| 2026-04-29 19:30 | 8.94 | 1320 | 3680 (1997) | 368 (2007) | 1430 | 454 | 775 | 879 | 952 | 1320 | 1730 | 1790 | 2380 | 3420 |
| 2026-04-29 19:15 | 8.94 | 1320 | 3680 (1997) | 368 (2007) | 1430 | 454 | 775 | 879 | 952 | 1320 | 1730 | 1790 | 2380 | 3420 |
| 2026-04-29 19:00 | 8.94 | 1320 | 3680 (1997) | 368 (2007) | 1430 | 454 | 775 | 879 | 952 | 1320 | 1730 | 1790 | 2380 | 3420 |
| 2026-04-29 18:45 | 8.93 | 1310 | 3680 (1997) | 368 (2007) | 1430 | 454 | 775 | 879 | 952 | 1320 | 1730 | 1790 | 2380 | 3420 |
| 2026-04-29 18:30 | 8.93 | 1310 | 3680 (1997) | 368 (2007) | 1430 | 454 | 775 | 879 | 952 | 1320 | 1730 | 1790 | 2380 | 3420 |
| 2026-04-29 18:15 | 8.92 | 1300 | 3680 (1997) | 368 (2007) | 1430 | 454 | 775 | 879 | 952 | 1320 | 1730 | 1790 | 2380 | 3420 |
| 2026-04-29 18:00 | 8.93 | 1310 | 3680 (1997) | 368 (2007) | 1430 | 454 | 775 | 879 | 952 | 1320 | 1730 | 1790 | 2380 | 3420 |
| 2026-04-29 17:45 | 8.92 | 1300 | 3680 (1997) | 368 (2007) | 1430 | 454 | 775 | 879 | 952 | 1320 | 1730 | 1790 | 2380 | 3420 |
| 2026-04-29 17:30 | 8.93 | 1310 | 3680 (1997) | 368 (2007) | 1430 | 454 | 775 | 879 | 952 | 1320 | 1730 | 1790 | 2380 | 3420 |
| 2026-04-29 17:00 | 8.93 | 1310 | 3680 (1997) | 368 (2007) | 1430 | 454 | 775 | 879 | 952 | 1320 | 1730 | 1790 | 2380 | 3420 |
| 2026-04-29 16:45 | 8.93 | 1310 | 3680 (1997) | 368 (2007) | 1430 | 454 | 775 | 879 | 952 | 1320 | 1730 | 1790 | 2380 | 3420 |
| 2026-04-29 16:15 | 8.92 | 1300 | 3680 (1997) | 368 (2007) | 1430 | 454 | 775 | 879 | 952 | 1320 | 1730 | 1790 | 2380 | 3420 |
| 2026-04-29 15:45 | 8.93 | 1310 | 3680 (1997) | 368 (2007) | 1430 | 454 | 775 | 879 | 952 | 1320 | 1730 | 1790 | 2380 | 3420 |
| 2026-04-29 15:00 | 8.94 | 1320 | 3680 (1997) | 368 (2007) | 1430 | 454 | 775 | 879 | 952 | 1320 | 1730 | 1790 | 2380 | 3420 |
| 2026-04-29 14:45 | 8.93 | 1310 | 3680 (1997) | 368 (2007) | 1430 | 454 | 775 | 879 | 952 | 1320 | 1730 | 1790 | 2380 | 3420 |
| 2026-04-29 14:30 | 8.93 | 1310 | 3680 (1997) | 368 (2007) | 1430 | 454 | 775 | 879 | 952 | 1320 | 1730 | 1790 | 2380 | 3420 |
| 2026-04-29 14:00 | 8.93 | 1310 | 3680 (1997) | 368 (2007) | 1430 | 454 | 775 | 879 | 952 | 1320 | 1730 | 1790 | 2380 | 3420 |
| 2026-04-29 13:45 | 8.93 | 1310 | 3680 (1997) | 368 (2007) | 1430 | 454 | 775 | 879 | 952 | 1320 | 1730 | 1790 | 2380 | 3420 |
| 2026-04-29 13:30 | 8.93 | 1310 | 3680 (1997) | 368 (2007) | 1430 | 454 | 775 | 879 | 952 | 1320 | 1730 | 1790 | 2380 | 3420 |
| 2026-04-29 12:45 | 8.93 | 1310 | 3680 (1997) | 368 (2007) | 1430 | 454 | 775 | 879 | 952 | 1320 | 1730 | 1790 | 2380 | 3420 |
| 2026-04-29 12:00 | 8.93 | 1310 | 3680 (1997) | 368 (2007) | 1430 | 454 | 775 | 879 | 952 | 1320 | 1730 | 1790 | 2380 | 3420 |
| 2026-04-29 10:15 | 8.77 | 1160 | 3680 (1997) | 368 (2007) | 1430 | 454 | 775 | 879 | 952 | 1320 | 1730 | 1790 | 2380 | 3420 |
| 2026-04-29 10:00 | 7.13 | 189 | 3680 (1997) | 368 (2007) | 1430 | 454 | 775 | 879 | 952 | 1320 | 1730 | 1790 | 2380 | 3420 |
| 2026-04-29 09:45 | 7.14 | 192 | 3680 (1997) | 368 (2007) | 1430 | 454 | 775 | 879 | 952 | 1320 | 1730 | 1790 | 2380 | 3420 |
| 2026-04-29 09:30 | 7.15 | 195 | 3680 (1997) | 368 (2007) | 1430 | 454 | 775 | 879 | 952 | 1320 | 1730 | 1790 | 2380 | 3420 |
| 2026-04-29 09:15 | 7.15 | 195 | 3680 (1997) | 368 (2007) | 1430 | 454 | 775 | 879 | 952 | 1320 | 1730 | 1790 | 2380 | 3420 |
| 2026-04-29 09:00 | 7.14 | 192 | 3680 (1997) | 368 (2007) | 1430 | 454 | 775 | 879 | 952 | 1320 | 1730 | 1790 | 2380 | 3420 |
| 2026-04-29 08:45 | 7.15 | 195 | 3680 (1997) | 368 (2007) | 1430 | 454 | 775 | 879 | 952 | 1320 | 1730 | 1790 | 2380 | 3420 |
| 2026-04-29 08:30 | 7.15 | 195 | 3680 (1997) | 368 (2007) | 1430 | 454 | 775 | 879 | 952 | 1320 | 1730 | 1790 | 2380 | 3420 |
| 2026-04-29 08:15 | 7.14 | 192 | 3680 (1997) | 368 (2007) | 1430 | 454 | 775 | 879 | 952 | 1320 | 1730 | 1790 | 2380 | 3420 |
| 2026-04-29 08:00 | 7.15 | 195 | 3680 (1997) | 368 (2007) | 1430 | 454 | 775 | 879 | 952 | 1320 | 1730 | 1790 | 2380 | 3420 |
| 2026-04-29 07:45 | 7.15 | 195 | 3680 (1997) | 368 (2007) | 1430 | 454 | 775 | 879 | 952 | 1320 | 1730 | 1790 | 2380 | 3420 |
| 2026-04-29 07:30 | 7.16 | 198 | 3680 (1997) | 368 (2007) | 1430 | 454 | 775 | 879 | 952 | 1320 | 1730 | 1790 | 2380 | 3420 |
| 2026-04-29 07:15 | 7.16 | 198 | 3680 (1997) | 368 (2007) | 1430 | 454 | 775 | 879 | 952 | 1320 | 1730 | 1790 | 2380 | 3420 |
| 2026-04-29 07:00 | 7.15 | 195 | 3680 (1997) | 368 (2007) | 1430 | 454 | 775 | 879 | 952 | 1320 | 1730 | 1790 | 2380 | 3420 |
| 2026-04-29 06:45 | 7.16 | 198 | 3680 (1997) | 368 (2007) | 1430 | 454 | 775 | 879 | 952 | 1320 | 1730 | 1790 | 2380 | 3420 |
| 2026-04-29 06:30 | 7.17 | 201 | 3680 (1997) | 368 (2007) | 1430 | 454 | 775 | 879 | 952 | 1320 | 1730 | 1790 | 2380 | 3420 |
| 2026-04-29 06:15 | 7.17 | 201 | 3680 (1997) | 368 (2007) | 1430 | 454 | 775 | 879 | 952 | 1320 | 1730 | 1790 | 2380 | 3420 |
| 2026-04-29 06:00 | 7.18 | 204 | 3680 (1997) | 368 (2007) | 1430 | 454 | 775 | 879 | 952 | 1320 | 1730 | 1790 | 2380 | 3420 |
| 2026-04-29 05:45 | 7.18 | 204 | 3680 (1997) | 368 (2007) | 1430 | 454 | 775 | 879 | 952 | 1320 | 1730 | 1790 | 2380 | 3420 |
| 2026-04-29 05:30 | 7.19 | 207 | 3680 (1997) | 368 (2007) | 1430 | 454 | 775 | 879 | 952 | 1320 | 1730 | 1790 | 2380 | 3420 |
| 2026-04-29 05:15 | 7.18 | 204 | 3680 (1997) | 368 (2007) | 1430 | 454 | 775 | 879 | 952 | 1320 | 1730 | 1790 | 2380 | 3420 |
| 2026-04-29 05:00 | 7.19 | 207 | 3680 (1997) | 368 (2007) | 1430 | 454 | 775 | 879 | 952 | 1320 | 1730 | 1790 | 2380 | 3420 |
| 2026-04-29 04:45 | 7.20 | 210 | 3680 (1997) | 368 (2007) | 1430 | 454 | 775 | 879 | 952 | 1320 | 1730 | 1790 | 2380 | 3420 |
| 2026-04-29 04:30 | 7.20 | 210 | 3680 (1997) | 368 (2007) | 1430 | 454 | 775 | 879 | 952 | 1320 | 1730 | 1790 | 2380 | 3420 |
| 2026-04-29 04:15 | 7.20 | 210 | 3680 (1997) | 368 (2007) | 1430 | 454 | 775 | 879 | 952 | 1320 | 1730 | 1790 | 2380 | 3420 |
| 2026-04-29 04:00 | 7.21 | 214 | 3680 (1997) | 368 (2007) | 1430 | 454 | 775 | 879 | 952 | 1320 | 1730 | 1790 | 2380 | 3420 |
| 2026-04-29 03:45 | 7.21 | 214 | 3680 (1997) | 368 (2007) | 1430 | 454 | 775 | 879 | 952 | 1320 | 1730 | 1790 | 2380 | 3420 |
| 2026-04-29 03:30 | 7.22 | 217 | 3680 (1997) | 368 (2007) | 1430 | 454 | 775 | 879 | 952 | 1320 | 1730 | 1790 | 2380 | 3420 |
| 2026-04-29 03:00 | 7.22 | 217 | 3680 (1997) | 368 (2007) | 1430 | 454 | 775 | 879 | 952 | 1320 | 1730 | 1790 | 2380 | 3420 |
| 2026-04-29 02:45 | 7.22 | 217 | 3680 (1997) | 368 (2007) | 1430 | 454 | 775 | 879 | 952 | 1320 | 1730 | 1790 | 2380 | 3420 |
| 2026-04-29 02:30 | 7.23 | 220 | 3680 (1997) | 368 (2007) | 1430 | 454 | 775 | 879 | 952 | 1320 | 1730 | 1790 | 2380 | 3420 |
| 2026-04-29 02:15 | 7.23 | 220 | 3680 (1997) | 368 (2007) | 1430 | 454 | 775 | 879 | 952 | 1320 | 1730 | 1790 | 2380 | 3420 |
| 2026-04-29 02:00 | 7.25 | 226 | 3680 (1997) | 368 (2007) | 1430 | 454 | 775 | 879 | 952 | 1320 | 1730 | 1790 | 2380 | 3420 |
| 2026-04-29 01:45 | 7.24 | 223 | 3680 (1997) | 368 (2007) | 1430 | 454 | 775 | 879 | 952 | 1320 | 1730 | 1790 | 2380 | 3420 |
| 2026-04-29 01:30 | 7.25 | 226 | 3680 (1997) | 368 (2007) | 1430 | 454 | 775 | 879 | 952 | 1320 | 1730 | 1790 | 2380 | 3420 |
| 2026-04-29 01:15 | 7.25 | 226 | 3680 (1997) | 368 (2007) | 1430 | 454 | 775 | 879 | 952 | 1320 | 1730 | 1790 | 2380 | 3420 |
| 2026-04-29 01:00 | 7.26 | 230 | 3680 (1997) | 368 (2007) | 1430 | 454 | 775 | 879 | 952 | 1320 | 1730 | 1790 | 2380 | 3420 |
| 2026-04-29 00:45 | 7.26 | 230 | 3680 (1997) | 368 (2007) | 1430 | 454 | 775 | 879 | 952 | 1320 | 1730 | 1790 | 2380 | 3420 |
| 2026-04-29 00:30 | 7.28 | 236 | 3680 (1997) | 368 (2007) | 1430 | 454 | 775 | 879 | 952 | 1320 | 1730 | 1790 | 2380 | 3420 |
| 2026-04-29 00:15 | 7.29 | 240 | 3680 (1997) | 368 (2007) | 1430 | 454 | 775 | 879 | 952 | 1320 | 1730 | 1790 | 2380 | 3420 |
| 2026-04-29 00:00 | 7.30 | 243 | 3680 (1997) | 368 (2007) | 1430 | 454 | 775 | 879 | 952 | 1320 | 1730 | 1790 | 2380 | 3420 |
| 2026-04-28 23:45 | 7.44 | 294 | 3680 (1997) | 368 (2007) | 1430 | 454 | 775 | 879 | 952 | 1320 | 1730 | 1790 | 2380 | 3420 |
| 2026-04-28 23:30 | 8.07 | 616 | 3680 (1997) | 368 (2007) | 1430 | 454 | 775 | 879 | 952 | 1320 | 1730 | 1790 | 2380 | 3420 |
| 2026-04-28 23:15 | 8.86 | 1240 | 3680 (1997) | 368 (2007) | 1430 | 454 | 775 | 879 | 952 | 1320 | 1730 | 1790 | 2380 | 3420 |
| 2026-04-28 23:00 | 8.97 | 1350 | 3680 (1997) | 368 (2007) | 1430 | 454 | 775 | 879 | 952 | 1320 | 1730 | 1790 | 2380 | 3420 |
| 2026-04-28 22:45 | 8.96 | 1340 | 2680 (2006) | 523 (2002) | 1450 | 525 | 533 | 774 | 917 | 1560 | 1860 | 2080 | 2370 | 2610 |
| 2026-04-28 22:30 | 8.96 | 1340 | 2680 (2006) | 523 (2002) | 1450 | 525 | 533 | 774 | 917 | 1560 | 1860 | 2080 | 2370 | 2610 |
| 2026-04-28 22:15 | 8.97 | 1350 | 2680 (2006) | 523 (2002) | 1450 | 525 | 533 | 774 | 917 | 1560 | 1860 | 2080 | 2370 | 2610 |
| 2026-04-28 22:00 | 8.96 | 1340 | 2680 (2006) | 523 (2002) | 1450 | 525 | 533 | 774 | 917 | 1560 | 1860 | 2080 | 2370 | 2610 |
| 2026-04-28 21:45 | 8.96 | 1340 | 2680 (2006) | 523 (2002) | 1450 | 525 | 533 | 774 | 917 | 1560 | 1860 | 2080 | 2370 | 2610 |
| 2026-04-28 21:30 | 8.97 | 1350 | 2680 (2006) | 523 (2002) | 1450 | 525 | 533 | 774 | 917 | 1560 | 1860 | 2080 | 2370 | 2610 |
| 2026-04-28 21:15 | 8.97 | 1350 | 2680 (2006) | 523 (2002) | 1450 | 525 | 533 | 774 | 917 | 1560 | 1860 | 2080 | 2370 | 2610 |
| 2026-04-28 21:00 | 8.97 | 1350 | 2680 (2006) | 523 (2002) | 1450 | 525 | 533 | 774 | 917 | 1560 | 1860 | 2080 | 2370 | 2610 |
| 2026-04-28 20:45 | 8.97 | 1350 | 2680 (2006) | 523 (2002) | 1450 | 525 | 533 | 774 | 917 | 1560 | 1860 | 2080 | 2370 | 2610 |
| 2026-04-28 20:30 | 8.98 | 1360 | 2680 (2006) | 523 (2002) | 1450 | 525 | 533 | 774 | 917 | 1560 | 1860 | 2080 | 2370 | 2610 |
| 2026-04-28 20:00 | 8.98 | 1360 | 2680 (2006) | 523 (2002) | 1450 | 525 | 533 | 774 | 917 | 1560 | 1860 | 2080 | 2370 | 2610 |
| 2026-04-28 19:45 | 9.00 | 1380 | 2680 (2006) | 523 (2002) | 1450 | 525 | 533 | 774 | 917 | 1560 | 1860 | 2080 | 2370 | 2610 |
| 2026-04-28 19:30 | 8.99 | 1370 | 2680 (2006) | 523 (2002) | 1450 | 525 | 533 | 774 | 917 | 1560 | 1860 | 2080 | 2370 | 2610 |
| 2026-04-28 19:15 | 9.00 | 1380 | 2680 (2006) | 523 (2002) | 1450 | 525 | 533 | 774 | 917 | 1560 | 1860 | 2080 | 2370 | 2610 |
| 2026-04-28 19:00 | 8.99 | 1370 | 2680 (2006) | 523 (2002) | 1450 | 525 | 533 | 774 | 917 | 1560 | 1860 | 2080 | 2370 | 2610 |
| 2026-04-28 18:45 | 8.99 | 1370 | 2680 (2006) | 523 (2002) | 1450 | 525 | 533 | 774 | 917 | 1560 | 1860 | 2080 | 2370 | 2610 |
| 2026-04-28 18:30 | 8.99 | 1370 | 2680 (2006) | 523 (2002) | 1450 | 525 | 533 | 774 | 917 | 1560 | 1860 | 2080 | 2370 | 2610 |
| 2026-04-28 18:15 | 8.99 | 1370 | 2680 (2006) | 523 (2002) | 1450 | 525 | 533 | 774 | 917 | 1560 | 1860 | 2080 | 2370 | 2610 |
| 2026-04-28 18:00 | 8.99 | 1370 | 2680 (2006) | 523 (2002) | 1450 | 525 | 533 | 774 | 917 | 1560 | 1860 | 2080 | 2370 | 2610 |
| 2026-04-28 17:45 | 9.00 | 1380 | 2680 (2006) | 523 (2002) | 1450 | 525 | 533 | 774 | 917 | 1560 | 1860 | 2080 | 2370 | 2610 |
| 2026-04-28 17:30 | 8.99 | 1370 | 2680 (2006) | 523 (2002) | 1450 | 525 | 533 | 774 | 917 | 1560 | 1860 | 2080 | 2370 | 2610 |
| 2026-04-28 17:00 | 8.98 | 1360 | 2680 (2006) | 523 (2002) | 1450 | 525 | 533 | 774 | 917 | 1560 | 1860 | 2080 | 2370 | 2610 |
| 2026-04-28 16:45 | 8.99 | 1370 | 2680 (2006) | 523 (2002) | 1450 | 525 | 533 | 774 | 917 | 1560 | 1860 | 2080 | 2370 | 2610 |
| 2026-04-28 16:30 | 8.97 | 1350 | 2680 (2006) | 523 (2002) | 1450 | 525 | 533 | 774 | 917 | 1560 | 1860 | 2080 | 2370 | 2610 |
| 2026-04-28 16:15 | 8.96 | 1340 | 2680 (2006) | 523 (2002) | 1450 | 525 | 533 | 774 | 917 | 1560 | 1860 | 2080 | 2370 | 2610 |
| 2026-04-28 15:15 | 8.98 | 1360 | 2680 (2006) | 523 (2002) | 1450 | 525 | 533 | 774 | 917 | 1560 | 1860 | 2080 | 2370 | 2610 |
| 2026-04-28 14:30 | 8.98 | 1360 | 2680 (2006) | 523 (2002) | 1450 | 525 | 533 | 774 | 917 | 1560 | 1860 | 2080 | 2370 | 2610 |
| 2026-04-28 14:15 | 8.96 | 1340 | 2680 (2006) | 523 (2002) | 1450 | 525 | 533 | 774 | 917 | 1560 | 1860 | 2080 | 2370 | 2610 |
| 2026-04-28 14:00 | 8.97 | 1350 | 2680 (2006) | 523 (2002) | 1450 | 525 | 533 | 774 | 917 | 1560 | 1860 | 2080 | 2370 | 2610 |
| 2026-04-28 13:45 | 8.96 | 1340 | 2680 (2006) | 523 (2002) | 1450 | 525 | 533 | 774 | 917 | 1560 | 1860 | 2080 | 2370 | 2610 |
| 2026-04-28 13:30 | 8.97 | 1350 | 2680 (2006) | 523 (2002) | 1450 | 525 | 533 | 774 | 917 | 1560 | 1860 | 2080 | 2370 | 2610 |
| 2026-04-28 13:15 | 8.96 | 1340 | 2680 (2006) | 523 (2002) | 1450 | 525 | 533 | 774 | 917 | 1560 | 1860 | 2080 | 2370 | 2610 |
| 2026-04-28 13:00 | 8.96 | 1340 | 2680 (2006) | 523 (2002) | 1450 | 525 | 533 | 774 | 917 | 1560 | 1860 | 2080 | 2370 | 2610 |
| 2026-04-28 12:45 | 8.93 | 1310 | 2680 (2006) | 523 (2002) | 1450 | 525 | 533 | 774 | 917 | 1560 | 1860 | 2080 | 2370 | 2610 |
| 2026-04-28 12:15 | 8.93 | 1310 | 2680 (2006) | 523 (2002) | 1450 | 525 | 533 | 774 | 917 | 1560 | 1860 | 2080 | 2370 | 2610 |
| 2026-04-28 12:00 | 8.93 | 1310 | 2680 (2006) | 523 (2002) | 1450 | 525 | 533 | 774 | 917 | 1560 | 1860 | 2080 | 2370 | 2610 |
| 2026-04-28 11:45 | 8.93 | 1310 | 2680 (2006) | 523 (2002) | 1450 | 525 | 533 | 774 | 917 | 1560 | 1860 | 2080 | 2370 | 2610 |
| 2026-04-28 11:30 | 8.92 | 1300 | 2680 (2006) | 523 (2002) | 1450 | 525 | 533 | 774 | 917 | 1560 | 1860 | 2080 | 2370 | 2610 |
| 2026-04-28 11:15 | 8.92 | 1300 | 2680 (2006) | 523 (2002) | 1450 | 525 | 533 | 774 | 917 | 1560 | 1860 | 2080 | 2370 | 2610 |
| 2026-04-28 11:00 | 8.91 | 1290 | 2680 (2006) | 523 (2002) | 1450 | 525 | 533 | 774 | 917 | 1560 | 1860 | 2080 | 2370 | 2610 |
| 2026-04-28 10:45 | 8.92 | 1300 | 2680 (2006) | 523 (2002) | 1450 | 525 | 533 | 774 | 917 | 1560 | 1860 | 2080 | 2370 | 2610 |
| 2026-04-28 10:30 | 8.91 | 1290 | 2680 (2006) | 523 (2002) | 1450 | 525 | 533 | 774 | 917 | 1560 | 1860 | 2080 | 2370 | 2610 |
| 2026-04-28 10:00 | 7.11 | 184 | 2680 (2006) | 523 (2002) | 1450 | 525 | 533 | 774 | 917 | 1560 | 1860 | 2080 | 2370 | 2610 |
| 2026-04-28 09:45 | 7.11 | 184 | 2680 (2006) | 523 (2002) | 1450 | 525 | 533 | 774 | 917 | 1560 | 1860 | 2080 | 2370 | 2610 |
| 2026-04-28 09:30 | 7.10 | 181 | 2680 (2006) | 523 (2002) | 1450 | 525 | 533 | 774 | 917 | 1560 | 1860 | 2080 | 2370 | 2610 |
| 2026-04-28 09:15 | 7.10 | 181 | 2680 (2006) | 523 (2002) | 1450 | 525 | 533 | 774 | 917 | 1560 | 1860 | 2080 | 2370 | 2610 |
| 2026-04-28 09:00 | 7.09 | 178 | 2680 (2006) | 523 (2002) | 1450 | 525 | 533 | 774 | 917 | 1560 | 1860 | 2080 | 2370 | 2610 |
| 2026-04-28 08:45 | 7.09 | 178 | 2680 (2006) | 523 (2002) | 1450 | 525 | 533 | 774 | 917 | 1560 | 1860 | 2080 | 2370 | 2610 |
| 2026-04-28 08:30 | 7.09 | 178 | 2680 (2006) | 523 (2002) | 1450 | 525 | 533 | 774 | 917 | 1560 | 1860 | 2080 | 2370 | 2610 |
| 2026-04-28 08:15 | 7.08 | 175 | 2680 (2006) | 523 (2002) | 1450 | 525 | 533 | 774 | 917 | 1560 | 1860 | 2080 | 2370 | 2610 |
| 2026-04-28 08:00 | 7.07 | 173 | 2680 (2006) | 523 (2002) | 1450 | 525 | 533 | 774 | 917 | 1560 | 1860 | 2080 | 2370 | 2610 |
| 2026-04-28 07:45 | 7.06 | 170 | 2680 (2006) | 523 (2002) | 1450 | 525 | 533 | 774 | 917 | 1560 | 1860 | 2080 | 2370 | 2610 |
| 2026-04-28 07:30 | 7.06 | 170 | 2680 (2006) | 523 (2002) | 1450 | 525 | 533 | 774 | 917 | 1560 | 1860 | 2080 | 2370 | 2610 |
| 2026-04-28 07:15 | 7.05 | 167 | 2680 (2006) | 523 (2002) | 1450 | 525 | 533 | 774 | 917 | 1560 | 1860 | 2080 | 2370 | 2610 |
| 2026-04-28 07:00 | 7.03 | 162 | 2680 (2006) | 523 (2002) | 1450 | 525 | 533 | 774 | 917 | 1560 | 1860 | 2080 | 2370 | 2610 |
| 2026-04-28 06:45 | 7.02 | 159 | 2680 (2006) | 523 (2002) | 1450 | 525 | 533 | 774 | 917 | 1560 | 1860 | 2080 | 2370 | 2610 |
| 2026-04-28 06:30 | 7.02 | 159 | 2680 (2006) | 523 (2002) | 1450 | 525 | 533 | 774 | 917 | 1560 | 1860 | 2080 | 2370 | 2610 |
| 2026-04-28 06:15 | 7.01 | 157 | 2680 (2006) | 523 (2002) | 1450 | 525 | 533 | 774 | 917 | 1560 | 1860 | 2080 | 2370 | 2610 |
| 2026-04-28 06:00 | 7.00 | 154 | 2680 (2006) | 523 (2002) | 1450 | 525 | 533 | 774 | 917 | 1560 | 1860 | 2080 | 2370 | 2610 |
| 2026-04-28 05:45 | 6.99 | 152 | 2680 (2006) | 523 (2002) | 1450 | 525 | 533 | 774 | 917 | 1560 | 1860 | 2080 | 2370 | 2610 |
| 2026-04-28 05:30 | 6.99 | 152 | 2680 (2006) | 523 (2002) | 1450 | 525 | 533 | 774 | 917 | 1560 | 1860 | 2080 | 2370 | 2610 |
| 2026-04-28 05:15 | 6.97 | 147 | 2680 (2006) | 523 (2002) | 1450 | 525 | 533 | 774 | 917 | 1560 | 1860 | 2080 | 2370 | 2610 |
| 2026-04-28 05:00 | 6.96 | 145 | 2680 (2006) | 523 (2002) | 1450 | 525 | 533 | 774 | 917 | 1560 | 1860 | 2080 | 2370 | 2610 |
| 2026-04-28 04:45 | 6.96 | 145 | 2680 (2006) | 523 (2002) | 1450 | 525 | 533 | 774 | 917 | 1560 | 1860 | 2080 | 2370 | 2610 |
| 2026-04-28 04:30 | 6.96 | 145 | 2680 (2006) | 523 (2002) | 1450 | 525 | 533 | 774 | 917 | 1560 | 1860 | 2080 | 2370 | 2610 |
| 2026-04-28 04:15 | 6.94 | 140 | 2680 (2006) | 523 (2002) | 1450 | 525 | 533 | 774 | 917 | 1560 | 1860 | 2080 | 2370 | 2610 |
| 2026-04-28 04:00 | 6.95 | 142 | 2680 (2006) | 523 (2002) | 1450 | 525 | 533 | 774 | 917 | 1560 | 1860 | 2080 | 2370 | 2610 |
| 2026-04-28 03:45 | 6.94 | 140 | 2680 (2006) | 523 (2002) | 1450 | 525 | 533 | 774 | 917 | 1560 | 1860 | 2080 | 2370 | 2610 |
| 2026-04-28 03:30 | 6.93 | 137 | 2680 (2006) | 523 (2002) | 1450 | 525 | 533 | 774 | 917 | 1560 | 1860 | 2080 | 2370 | 2610 |
| 2026-04-28 03:00 | 6.94 | 140 | 2680 (2006) | 523 (2002) | 1450 | 525 | 533 | 774 | 917 | 1560 | 1860 | 2080 | 2370 | 2610 |
| 2026-04-28 02:30 | 6.96 | 145 | 2680 (2006) | 523 (2002) | 1450 | 525 | 533 | 774 | 917 | 1560 | 1860 | 2080 | 2370 | 2610 |
| 2026-04-28 02:15 | 6.94 | 140 | 2680 (2006) | 523 (2002) | 1450 | 525 | 533 | 774 | 917 | 1560 | 1860 | 2080 | 2370 | 2610 |
| 2026-04-28 02:00 | 6.93 | 137 | 2680 (2006) | 523 (2002) | 1450 | 525 | 533 | 774 | 917 | 1560 | 1860 | 2080 | 2370 | 2610 |
| 2026-04-28 01:45 | 6.94 | 140 | 2680 (2006) | 523 (2002) | 1450 | 525 | 533 | 774 | 917 | 1560 | 1860 | 2080 | 2370 | 2610 |
| 2026-04-28 01:30 | 6.94 | 140 | 2680 (2006) | 523 (2002) | 1450 | 525 | 533 | 774 | 917 | 1560 | 1860 | 2080 | 2370 | 2610 |
| 2026-04-28 01:15 | 6.94 | 140 | 2680 (2006) | 523 (2002) | 1450 | 525 | 533 | 774 | 917 | 1560 | 1860 | 2080 | 2370 | 2610 |
| 2026-04-28 01:00 | 6.94 | 140 | 2680 (2006) | 523 (2002) | 1450 | 525 | 533 | 774 | 917 | 1560 | 1860 | 2080 | 2370 | 2610 |
| 2026-04-28 00:45 | 6.93 | 137 | 2680 (2006) | 523 (2002) | 1450 | 525 | 533 | 774 | 917 | 1560 | 1860 | 2080 | 2370 | 2610 |
| 2026-04-28 00:30 | 6.94 | 140 | 2680 (2006) | 523 (2002) | 1450 | 525 | 533 | 774 | 917 | 1560 | 1860 | 2080 | 2370 | 2610 |
| 2026-04-28 00:15 | 6.95 | 142 | 2680 (2006) | 523 (2002) | 1450 | 525 | 533 | 774 | 917 | 1560 | 1860 | 2080 | 2370 | 2610 |
| 2026-04-28 00:00 | 6.94 | 140 | 2680 (2006) | 523 (2002) | 1450 | 525 | 533 | 774 | 917 | 1560 | 1860 | 2080 | 2370 | 2610 |
| 2026-04-27 23:45 | 6.95 | 142 | 2680 (2006) | 523 (2002) | 1450 | 525 | 533 | 774 | 917 | 1560 | 1860 | 2080 | 2370 | 2610 |
| 2026-04-27 23:30 | 6.96 | 145 | 2680 (2006) | 523 (2002) | 1450 | 525 | 533 | 774 | 917 | 1560 | 1860 | 2080 | 2370 | 2610 |
| 2026-04-27 23:15 | 6.96 | 145 | 2680 (2006) | 523 (2002) | 1450 | 525 | 533 | 774 | 917 | 1560 | 1860 | 2080 | 2370 | 2610 |
| 2026-04-27 23:00 | 6.96 | 145 | 2680 (2006) | 523 (2002) | 1450 | 525 | 533 | 774 | 917 | 1560 | 1860 | 2080 | 2370 | 2610 |
A total of 642 rows are displayed for years 1997 through 2025.